<?xml version="1.0" encoding="UTF-8" standalone="no" ?>
<gpx xmlns="http://www.topografix.com/GPX/1/1" xmlns:xsi="http://www.w3.org/2001/XMLSchema-instance" xsi:schemaLocation="http://www.topografix.com/GPX/1/1 http://www.topografix.com/GPX/1/1/gpx.xsd" version="1.1" creator="VisuGPX - https://www.visugpx.com">
  <metadata>
    <name>Oraison</name>
    <desc><![CDATA[De superbes points de vue sur la vallée de la Durance.
]]></desc>
  </metadata>
  <trk>
    <name><![CDATA[Oraison 12km 300m 18-11-2021]]></name>
    <trkseg>
      <trkpt lat="43.91209" lon="5.91574">
        <ele>359.6</ele>
        <time>2021-11-18T09:20:53Z</time>
      </trkpt>
      <trkpt lat="43.91212" lon="5.91585">
        <ele>359.9</ele>
        <time>2021-11-18T09:23:03Z</time>
      </trkpt>
      <trkpt lat="43.91213" lon="5.91601">
        <ele>360.2</ele>
        <time>2021-11-18T09:23:13Z</time>
      </trkpt>
      <trkpt lat="43.9121" lon="5.91613">
        <ele>360.1</ele>
        <time>2021-11-18T09:23:22Z</time>
      </trkpt>
      <trkpt lat="43.91211" lon="5.91628">
        <ele>359.9</ele>
        <time>2021-11-18T09:23:32Z</time>
      </trkpt>
      <trkpt lat="43.91212" lon="5.91643">
        <ele>359.9</ele>
        <time>2021-11-18T09:23:41Z</time>
      </trkpt>
      <trkpt lat="43.91213" lon="5.91656">
        <ele>360</ele>
        <time>2021-11-18T09:23:50Z</time>
      </trkpt>
      <trkpt lat="43.91212" lon="5.9167">
        <ele>359.9</ele>
        <time>2021-11-18T09:24:00Z</time>
      </trkpt>
      <trkpt lat="43.91213" lon="5.91683">
        <ele>360.4</ele>
        <time>2021-11-18T09:24:10Z</time>
      </trkpt>
      <trkpt lat="43.91214" lon="5.91697">
        <ele>360.8</ele>
        <time>2021-11-18T09:24:19Z</time>
      </trkpt>
      <trkpt lat="43.91215" lon="5.9171">
        <ele>360.9</ele>
        <time>2021-11-18T09:24:28Z</time>
      </trkpt>
      <trkpt lat="43.91216" lon="5.91723">
        <ele>361.1</ele>
        <time>2021-11-18T09:24:36Z</time>
      </trkpt>
      <trkpt lat="43.91219" lon="5.91735">
        <ele>361.5</ele>
        <time>2021-11-18T09:24:44Z</time>
      </trkpt>
      <trkpt lat="43.91223" lon="5.91749">
        <ele>362</ele>
        <time>2021-11-18T09:24:53Z</time>
      </trkpt>
      <trkpt lat="43.91226" lon="5.91762">
        <ele>362.2</ele>
        <time>2021-11-18T09:25:02Z</time>
      </trkpt>
      <trkpt lat="43.91229" lon="5.91774">
        <ele>362.4</ele>
        <time>2021-11-18T09:25:11Z</time>
      </trkpt>
      <trkpt lat="43.9123" lon="5.9179">
        <ele>362.2</ele>
        <time>2021-11-18T09:25:21Z</time>
      </trkpt>
      <trkpt lat="43.91234" lon="5.91804">
        <ele>362.3</ele>
        <time>2021-11-18T09:25:30Z</time>
      </trkpt>
      <trkpt lat="43.91237" lon="5.91816">
        <ele>362</ele>
        <time>2021-11-18T09:25:40Z</time>
      </trkpt>
      <trkpt lat="43.9124" lon="5.91832">
        <ele>361.7</ele>
        <time>2021-11-18T09:25:52Z</time>
      </trkpt>
      <trkpt lat="43.91241" lon="5.91843">
        <ele>361.7</ele>
        <time>2021-11-18T09:26:04Z</time>
      </trkpt>
      <trkpt lat="43.91238" lon="5.91852">
        <ele>361.2</ele>
        <time>2021-11-18T09:26:30Z</time>
      </trkpt>
      <trkpt lat="43.91247" lon="5.91864">
        <ele>362.4</ele>
        <time>2021-11-18T09:26:39Z</time>
      </trkpt>
      <trkpt lat="43.9125" lon="5.91878">
        <ele>362.4</ele>
        <time>2021-11-18T09:26:48Z</time>
      </trkpt>
      <trkpt lat="43.91253" lon="5.9189">
        <ele>362.2</ele>
        <time>2021-11-18T09:26:56Z</time>
      </trkpt>
      <trkpt lat="43.91258" lon="5.91903">
        <ele>362.2</ele>
        <time>2021-11-18T09:27:04Z</time>
      </trkpt>
      <trkpt lat="43.91261" lon="5.91917">
        <ele>362.2</ele>
        <time>2021-11-18T09:27:12Z</time>
      </trkpt>
      <trkpt lat="43.91264" lon="5.91929">
        <ele>362.3</ele>
        <time>2021-11-18T09:27:20Z</time>
      </trkpt>
      <trkpt lat="43.91268" lon="5.91942">
        <ele>362.7</ele>
        <time>2021-11-18T09:27:28Z</time>
      </trkpt>
      <trkpt lat="43.91274" lon="5.91956">
        <ele>363.5</ele>
        <time>2021-11-18T09:27:36Z</time>
      </trkpt>
      <trkpt lat="43.91277" lon="5.91968">
        <ele>363.9</ele>
        <time>2021-11-18T09:27:44Z</time>
      </trkpt>
      <trkpt lat="43.91281" lon="5.91981">
        <ele>363.8</ele>
        <time>2021-11-18T09:27:52Z</time>
      </trkpt>
      <trkpt lat="43.91285" lon="5.91994">
        <ele>363.7</ele>
        <time>2021-11-18T09:28:00Z</time>
      </trkpt>
      <trkpt lat="43.9129" lon="5.92008">
        <ele>363.5</ele>
        <time>2021-11-18T09:28:08Z</time>
      </trkpt>
      <trkpt lat="43.91295" lon="5.9202">
        <ele>363.7</ele>
        <time>2021-11-18T09:28:16Z</time>
      </trkpt>
      <trkpt lat="43.91299" lon="5.92031">
        <ele>364.1</ele>
        <time>2021-11-18T09:28:24Z</time>
      </trkpt>
      <trkpt lat="43.91305" lon="5.92041">
        <ele>364.5</ele>
        <time>2021-11-18T09:28:32Z</time>
      </trkpt>
      <trkpt lat="43.91312" lon="5.92049">
        <ele>364.6</ele>
        <time>2021-11-18T09:28:41Z</time>
      </trkpt>
      <trkpt lat="43.91322" lon="5.92058">
        <ele>365.1</ele>
        <time>2021-11-18T09:28:58Z</time>
      </trkpt>
      <trkpt lat="43.9133" lon="5.92066">
        <ele>365.4</ele>
        <time>2021-11-18T09:29:06Z</time>
      </trkpt>
      <trkpt lat="43.91337" lon="5.92074">
        <ele>365.6</ele>
        <time>2021-11-18T09:29:14Z</time>
      </trkpt>
      <trkpt lat="43.91345" lon="5.92081">
        <ele>365.9</ele>
        <time>2021-11-18T09:29:22Z</time>
      </trkpt>
      <trkpt lat="43.91353" lon="5.9209">
        <ele>365.9</ele>
        <time>2021-11-18T09:29:30Z</time>
      </trkpt>
      <trkpt lat="43.91362" lon="5.92099">
        <ele>365.9</ele>
        <time>2021-11-18T09:29:38Z</time>
      </trkpt>
      <trkpt lat="43.9137" lon="5.92105">
        <ele>366.3</ele>
        <time>2021-11-18T09:29:46Z</time>
      </trkpt>
      <trkpt lat="43.91378" lon="5.92116">
        <ele>366.5</ele>
        <time>2021-11-18T09:29:55Z</time>
      </trkpt>
      <trkpt lat="43.91386" lon="5.92125">
        <ele>366.7</ele>
        <time>2021-11-18T09:30:02Z</time>
      </trkpt>
      <trkpt lat="43.91393" lon="5.92132">
        <ele>366.7</ele>
        <time>2021-11-18T09:30:09Z</time>
      </trkpt>
      <trkpt lat="43.91402" lon="5.9214">
        <ele>366.9</ele>
        <time>2021-11-18T09:30:16Z</time>
      </trkpt>
      <trkpt lat="43.9141" lon="5.92146">
        <ele>366.9</ele>
        <time>2021-11-18T09:30:23Z</time>
      </trkpt>
      <trkpt lat="43.91418" lon="5.92153">
        <ele>366.6</ele>
        <time>2021-11-18T09:30:30Z</time>
      </trkpt>
      <trkpt lat="43.91425" lon="5.92161">
        <ele>366.7</ele>
        <time>2021-11-18T09:30:37Z</time>
      </trkpt>
      <trkpt lat="43.91434" lon="5.92166">
        <ele>367.5</ele>
        <time>2021-11-18T09:30:44Z</time>
      </trkpt>
      <trkpt lat="43.91442" lon="5.9217">
        <ele>368.2</ele>
        <time>2021-11-18T09:30:51Z</time>
      </trkpt>
      <trkpt lat="43.9145" lon="5.92175">
        <ele>368.1</ele>
        <time>2021-11-18T09:30:58Z</time>
      </trkpt>
      <trkpt lat="43.91458" lon="5.92181">
        <ele>367.9</ele>
        <time>2021-11-18T09:31:06Z</time>
      </trkpt>
      <trkpt lat="43.91456" lon="5.9218">
        <ele>367.9</ele>
        <time>2021-11-18T09:31:32Z</time>
      </trkpt>
      <trkpt lat="43.91466" lon="5.92188">
        <ele>368.3</ele>
        <time>2021-11-18T09:31:42Z</time>
      </trkpt>
      <trkpt lat="43.91477" lon="5.92195">
        <ele>369</ele>
        <time>2021-11-18T09:31:52Z</time>
      </trkpt>
      <trkpt lat="43.91487" lon="5.92203">
        <ele>368.6</ele>
        <time>2021-11-18T09:32:01Z</time>
      </trkpt>
      <trkpt lat="43.91498" lon="5.92208">
        <ele>368.9</ele>
        <time>2021-11-18T09:32:12Z</time>
      </trkpt>
      <trkpt lat="43.91502" lon="5.9222">
        <ele>369.1</ele>
        <time>2021-11-18T09:32:30Z</time>
      </trkpt>
      <trkpt lat="43.91514" lon="5.92226">
        <ele>369.4</ele>
        <time>2021-11-18T09:32:44Z</time>
      </trkpt>
      <trkpt lat="43.91524" lon="5.92228">
        <ele>369.8</ele>
        <time>2021-11-18T09:32:52Z</time>
      </trkpt>
      <trkpt lat="43.91533" lon="5.92235">
        <ele>370.2</ele>
        <time>2021-11-18T09:33:00Z</time>
      </trkpt>
      <trkpt lat="43.91538" lon="5.92245">
        <ele>370.4</ele>
        <time>2021-11-18T09:33:21Z</time>
      </trkpt>
      <trkpt lat="43.91544" lon="5.9226">
        <ele>370.3</ele>
        <time>2021-11-18T09:33:30Z</time>
      </trkpt>
      <trkpt lat="43.91552" lon="5.92273">
        <ele>370.7</ele>
        <time>2021-11-18T09:33:39Z</time>
      </trkpt>
      <trkpt lat="43.91559" lon="5.92283">
        <ele>371.1</ele>
        <time>2021-11-18T09:33:47Z</time>
      </trkpt>
      <trkpt lat="43.91565" lon="5.92293">
        <ele>371.4</ele>
        <time>2021-11-18T09:33:54Z</time>
      </trkpt>
      <trkpt lat="43.91571" lon="5.92307">
        <ele>371.5</ele>
        <time>2021-11-18T09:34:03Z</time>
      </trkpt>
      <trkpt lat="43.91576" lon="5.92319">
        <ele>371.5</ele>
        <time>2021-11-18T09:34:10Z</time>
      </trkpt>
      <trkpt lat="43.9158" lon="5.92331">
        <ele>371.7</ele>
        <time>2021-11-18T09:34:18Z</time>
      </trkpt>
      <trkpt lat="43.91585" lon="5.92344">
        <ele>372</ele>
        <time>2021-11-18T09:34:26Z</time>
      </trkpt>
      <trkpt lat="43.9159" lon="5.92357">
        <ele>372</ele>
        <time>2021-11-18T09:34:34Z</time>
      </trkpt>
      <trkpt lat="43.91595" lon="5.92368">
        <ele>371.8</ele>
        <time>2021-11-18T09:34:41Z</time>
      </trkpt>
      <trkpt lat="43.91599" lon="5.92381">
        <ele>371.7</ele>
        <time>2021-11-18T09:34:48Z</time>
      </trkpt>
      <trkpt lat="43.91605" lon="5.92393">
        <ele>371.9</ele>
        <time>2021-11-18T09:34:56Z</time>
      </trkpt>
      <trkpt lat="43.9161" lon="5.92405">
        <ele>372.5</ele>
        <time>2021-11-18T09:35:03Z</time>
      </trkpt>
      <trkpt lat="43.91613" lon="5.92415">
        <ele>372.9</ele>
        <time>2021-11-18T09:35:10Z</time>
      </trkpt>
      <trkpt lat="43.91618" lon="5.92424">
        <ele>373</ele>
        <time>2021-11-18T09:35:18Z</time>
      </trkpt>
      <trkpt lat="43.91624" lon="5.92437">
        <ele>373</ele>
        <time>2021-11-18T09:35:26Z</time>
      </trkpt>
      <trkpt lat="43.91628" lon="5.92452">
        <ele>373</ele>
        <time>2021-11-18T09:35:34Z</time>
      </trkpt>
      <trkpt lat="43.9163" lon="5.92466">
        <ele>373</ele>
        <time>2021-11-18T09:35:42Z</time>
      </trkpt>
      <trkpt lat="43.91636" lon="5.92477">
        <ele>373</ele>
        <time>2021-11-18T09:35:50Z</time>
      </trkpt>
      <trkpt lat="43.91643" lon="5.92487">
        <ele>373.1</ele>
        <time>2021-11-18T09:35:58Z</time>
      </trkpt>
      <trkpt lat="43.91645" lon="5.92497">
        <ele>373.2</ele>
        <time>2021-11-18T09:36:06Z</time>
      </trkpt>
      <trkpt lat="43.9165" lon="5.92508">
        <ele>373.6</ele>
        <time>2021-11-18T09:36:14Z</time>
      </trkpt>
      <trkpt lat="43.91655" lon="5.92519">
        <ele>373.9</ele>
        <time>2021-11-18T09:36:22Z</time>
      </trkpt>
      <trkpt lat="43.91662" lon="5.92528">
        <ele>374</ele>
        <time>2021-11-18T09:36:30Z</time>
      </trkpt>
      <trkpt lat="43.91667" lon="5.92541">
        <ele>374</ele>
        <time>2021-11-18T09:36:39Z</time>
      </trkpt>
      <trkpt lat="43.91673" lon="5.92553">
        <ele>374.2</ele>
        <time>2021-11-18T09:36:47Z</time>
      </trkpt>
      <trkpt lat="43.91679" lon="5.92567">
        <ele>374.5</ele>
        <time>2021-11-18T09:36:56Z</time>
      </trkpt>
      <trkpt lat="43.91689" lon="5.92572">
        <ele>374.8</ele>
        <time>2021-11-18T09:37:04Z</time>
      </trkpt>
      <trkpt lat="43.91699" lon="5.92576">
        <ele>375.2</ele>
        <time>2021-11-18T09:37:12Z</time>
      </trkpt>
      <trkpt lat="43.91707" lon="5.92578">
        <ele>375.5</ele>
        <time>2021-11-18T09:37:20Z</time>
      </trkpt>
      <trkpt lat="43.91718" lon="5.92579">
        <ele>375.8</ele>
        <time>2021-11-18T09:37:28Z</time>
      </trkpt>
      <trkpt lat="43.91728" lon="5.92573">
        <ele>376.2</ele>
        <time>2021-11-18T09:37:37Z</time>
      </trkpt>
      <trkpt lat="43.91736" lon="5.92563">
        <ele>376.5</ele>
        <time>2021-11-18T09:37:45Z</time>
      </trkpt>
      <trkpt lat="43.91742" lon="5.92555">
        <ele>376.7</ele>
        <time>2021-11-18T09:37:53Z</time>
      </trkpt>
      <trkpt lat="43.91747" lon="5.92543">
        <ele>376.9</ele>
        <time>2021-11-18T09:38:01Z</time>
      </trkpt>
      <trkpt lat="43.91754" lon="5.92533">
        <ele>377.3</ele>
        <time>2021-11-18T09:38:10Z</time>
      </trkpt>
      <trkpt lat="43.91761" lon="5.92525">
        <ele>377.8</ele>
        <time>2021-11-18T09:38:18Z</time>
      </trkpt>
      <trkpt lat="43.91769" lon="5.92525">
        <ele>378.4</ele>
        <time>2021-11-18T09:38:30Z</time>
      </trkpt>
      <trkpt lat="43.91777" lon="5.92553">
        <ele>378.1</ele>
        <time>2021-11-18T09:39:45Z</time>
      </trkpt>
      <trkpt lat="43.91787" lon="5.9259">
        <ele>379.7</ele>
        <time>2021-11-18T09:39:53Z</time>
      </trkpt>
      <trkpt lat="43.9179" lon="5.92605">
        <ele>380.2</ele>
        <time>2021-11-18T09:40:01Z</time>
      </trkpt>
      <trkpt lat="43.91792" lon="5.92619">
        <ele>380.5</ele>
        <time>2021-11-18T09:40:09Z</time>
      </trkpt>
      <trkpt lat="43.91794" lon="5.92632">
        <ele>380.5</ele>
        <time>2021-11-18T09:40:17Z</time>
      </trkpt>
      <trkpt lat="43.91799" lon="5.92648">
        <ele>380.8</ele>
        <time>2021-11-18T09:40:26Z</time>
      </trkpt>
      <trkpt lat="43.91802" lon="5.92665">
        <ele>380.6</ele>
        <time>2021-11-18T09:40:35Z</time>
      </trkpt>
      <trkpt lat="43.91805" lon="5.92675">
        <ele>380.6</ele>
        <time>2021-11-18T09:40:43Z</time>
      </trkpt>
      <trkpt lat="43.91807" lon="5.92688">
        <ele>380.6</ele>
        <time>2021-11-18T09:40:51Z</time>
      </trkpt>
      <trkpt lat="43.9181" lon="5.927">
        <ele>380.9</ele>
        <time>2021-11-18T09:41:00Z</time>
      </trkpt>
      <trkpt lat="43.91812" lon="5.92714">
        <ele>380.7</ele>
        <time>2021-11-18T09:41:08Z</time>
      </trkpt>
      <trkpt lat="43.91815" lon="5.92728">
        <ele>381.1</ele>
        <time>2021-11-18T09:41:16Z</time>
      </trkpt>
      <trkpt lat="43.91818" lon="5.92739">
        <ele>381.2</ele>
        <time>2021-11-18T09:41:24Z</time>
      </trkpt>
      <trkpt lat="43.91824" lon="5.92754">
        <ele>381.9</ele>
        <time>2021-11-18T09:41:33Z</time>
      </trkpt>
      <trkpt lat="43.91828" lon="5.92764">
        <ele>381.9</ele>
        <time>2021-11-18T09:41:44Z</time>
      </trkpt>
      <trkpt lat="43.91837" lon="5.92778">
        <ele>381.6</ele>
        <time>2021-11-18T09:41:54Z</time>
      </trkpt>
      <trkpt lat="43.9184" lon="5.92782">
        <ele>381.6</ele>
        <time>2021-11-18T09:42:28Z</time>
      </trkpt>
      <trkpt lat="43.91839" lon="5.92788">
        <ele>381</ele>
        <time>2021-11-18T09:42:50Z</time>
      </trkpt>
      <trkpt lat="43.9183" lon="5.92795">
        <ele>379.1</ele>
        <time>2021-11-18T09:43:07Z</time>
      </trkpt>
      <trkpt lat="43.91822" lon="5.928">
        <ele>378.6</ele>
        <time>2021-11-18T09:43:21Z</time>
      </trkpt>
      <trkpt lat="43.91816" lon="5.9281">
        <ele>378.5</ele>
        <time>2021-11-18T09:43:38Z</time>
      </trkpt>
      <trkpt lat="43.91814" lon="5.92812">
        <ele>378.5</ele>
        <time>2021-11-18T09:44:04Z</time>
      </trkpt>
      <trkpt lat="43.91813" lon="5.92816">
        <ele>378.5</ele>
        <time>2021-11-18T09:44:34Z</time>
      </trkpt>
      <trkpt lat="43.91811" lon="5.9282">
        <ele>378.4</ele>
        <time>2021-11-18T09:45:34Z</time>
      </trkpt>
      <trkpt lat="43.91804" lon="5.92829">
        <ele>378.2</ele>
        <time>2021-11-18T09:45:48Z</time>
      </trkpt>
      <trkpt lat="43.918" lon="5.92837">
        <ele>378.2</ele>
        <time>2021-11-18T09:46:11Z</time>
      </trkpt>
      <trkpt lat="43.9179" lon="5.92828">
        <ele>378.6</ele>
        <time>2021-11-18T09:46:23Z</time>
      </trkpt>
      <trkpt lat="43.91782" lon="5.92821">
        <ele>378.9</ele>
        <time>2021-11-18T09:46:33Z</time>
      </trkpt>
      <trkpt lat="43.91773" lon="5.92817">
        <ele>378.9</ele>
        <time>2021-11-18T09:46:44Z</time>
      </trkpt>
      <trkpt lat="43.91764" lon="5.92808">
        <ele>378.6</ele>
        <time>2021-11-18T09:46:55Z</time>
      </trkpt>
      <trkpt lat="43.91756" lon="5.92801">
        <ele>378.2</ele>
        <time>2021-11-18T09:47:05Z</time>
      </trkpt>
      <trkpt lat="43.91747" lon="5.92794">
        <ele>378</ele>
        <time>2021-11-18T09:47:19Z</time>
      </trkpt>
      <trkpt lat="43.9174" lon="5.92791">
        <ele>378</ele>
        <time>2021-11-18T09:47:49Z</time>
      </trkpt>
      <trkpt lat="43.91731" lon="5.92784">
        <ele>378</ele>
        <time>2021-11-18T09:48:04Z</time>
      </trkpt>
      <trkpt lat="43.91721" lon="5.92783">
        <ele>378</ele>
        <time>2021-11-18T09:48:24Z</time>
      </trkpt>
      <trkpt lat="43.91713" lon="5.92792">
        <ele>378</ele>
        <time>2021-11-18T09:48:47Z</time>
      </trkpt>
      <trkpt lat="43.91705" lon="5.92797">
        <ele>378</ele>
        <time>2021-11-18T09:49:01Z</time>
      </trkpt>
      <trkpt lat="43.91695" lon="5.92801">
        <ele>378</ele>
        <time>2021-11-18T09:49:12Z</time>
      </trkpt>
      <trkpt lat="43.91685" lon="5.92807">
        <ele>378</ele>
        <time>2021-11-18T09:49:22Z</time>
      </trkpt>
      <trkpt lat="43.91676" lon="5.92813">
        <ele>378.3</ele>
        <time>2021-11-18T09:49:31Z</time>
      </trkpt>
      <trkpt lat="43.91667" lon="5.9282">
        <ele>378.5</ele>
        <time>2021-11-18T09:49:40Z</time>
      </trkpt>
      <trkpt lat="43.91657" lon="5.92826">
        <ele>378.5</ele>
        <time>2021-11-18T09:49:48Z</time>
      </trkpt>
      <trkpt lat="43.91647" lon="5.92829">
        <ele>378.3</ele>
        <time>2021-11-18T09:49:57Z</time>
      </trkpt>
      <trkpt lat="43.91637" lon="5.92832">
        <ele>378.1</ele>
        <time>2021-11-18T09:50:06Z</time>
      </trkpt>
      <trkpt lat="43.91628" lon="5.92839">
        <ele>378.6</ele>
        <time>2021-11-18T09:50:16Z</time>
      </trkpt>
      <trkpt lat="43.91623" lon="5.9285">
        <ele>379.2</ele>
        <time>2021-11-18T09:50:25Z</time>
      </trkpt>
      <trkpt lat="43.91621" lon="5.92863">
        <ele>379.7</ele>
        <time>2021-11-18T09:50:34Z</time>
      </trkpt>
      <trkpt lat="43.91616" lon="5.92874">
        <ele>380.2</ele>
        <time>2021-11-18T09:50:44Z</time>
      </trkpt>
      <trkpt lat="43.91609" lon="5.92887">
        <ele>381.1</ele>
        <time>2021-11-18T09:50:59Z</time>
      </trkpt>
      <trkpt lat="43.916" lon="5.92895">
        <ele>382.1</ele>
        <time>2021-11-18T09:51:12Z</time>
      </trkpt>
      <trkpt lat="43.91592" lon="5.92904">
        <ele>383.6</ele>
        <time>2021-11-18T09:51:25Z</time>
      </trkpt>
      <trkpt lat="43.91583" lon="5.92917">
        <ele>386.1</ele>
        <time>2021-11-18T09:51:39Z</time>
      </trkpt>
      <trkpt lat="43.91576" lon="5.92931">
        <ele>388.1</ele>
        <time>2021-11-18T09:51:53Z</time>
      </trkpt>
      <trkpt lat="43.91571" lon="5.92941">
        <ele>389.6</ele>
        <time>2021-11-18T09:52:05Z</time>
      </trkpt>
      <trkpt lat="43.91564" lon="5.9295">
        <ele>390.9</ele>
        <time>2021-11-18T09:52:17Z</time>
      </trkpt>
      <trkpt lat="43.91559" lon="5.92963">
        <ele>392.7</ele>
        <time>2021-11-18T09:52:29Z</time>
      </trkpt>
      <trkpt lat="43.91551" lon="5.92973">
        <ele>394.8</ele>
        <time>2021-11-18T09:52:41Z</time>
      </trkpt>
      <trkpt lat="43.91543" lon="5.92981">
        <ele>397.1</ele>
        <time>2021-11-18T09:52:54Z</time>
      </trkpt>
      <trkpt lat="43.91536" lon="5.92991">
        <ele>399.1</ele>
        <time>2021-11-18T09:53:08Z</time>
      </trkpt>
      <trkpt lat="43.91528" lon="5.93002">
        <ele>401.2</ele>
        <time>2021-11-18T10:02:53Z</time>
      </trkpt>
      <trkpt lat="43.91523" lon="5.93006">
        <ele>402.2</ele>
        <time>2021-11-18T10:03:26Z</time>
      </trkpt>
      <trkpt lat="43.91515" lon="5.93018">
        <ele>404.3</ele>
        <time>2021-11-18T10:03:40Z</time>
      </trkpt>
      <trkpt lat="43.91511" lon="5.9303">
        <ele>406.1</ele>
        <time>2021-11-18T10:03:56Z</time>
      </trkpt>
      <trkpt lat="43.91506" lon="5.93043">
        <ele>407.8</ele>
        <time>2021-11-18T10:04:13Z</time>
      </trkpt>
      <trkpt lat="43.91501" lon="5.93056">
        <ele>409.9</ele>
        <time>2021-11-18T10:04:25Z</time>
      </trkpt>
      <trkpt lat="43.91492" lon="5.93064">
        <ele>411.3</ele>
        <time>2021-11-18T10:04:36Z</time>
      </trkpt>
      <trkpt lat="43.91484" lon="5.9307">
        <ele>412.4</ele>
        <time>2021-11-18T10:04:47Z</time>
      </trkpt>
      <trkpt lat="43.91478" lon="5.93076">
        <ele>413.6</ele>
        <time>2021-11-18T10:05:32Z</time>
      </trkpt>
      <trkpt lat="43.91477" lon="5.93079">
        <ele>414.1</ele>
        <time>2021-11-18T10:07:02Z</time>
      </trkpt>
      <trkpt lat="43.91468" lon="5.93088">
        <ele>414.8</ele>
        <time>2021-11-18T10:07:14Z</time>
      </trkpt>
      <trkpt lat="43.9146" lon="5.93099">
        <ele>415.1</ele>
        <time>2021-11-18T10:07:25Z</time>
      </trkpt>
      <trkpt lat="43.91455" lon="5.93109">
        <ele>416</ele>
        <time>2021-11-18T10:07:35Z</time>
      </trkpt>
      <trkpt lat="43.9145" lon="5.93119">
        <ele>416.9</ele>
        <time>2021-11-18T10:07:46Z</time>
      </trkpt>
      <trkpt lat="43.91445" lon="5.93129">
        <ele>418.5</ele>
        <time>2021-11-18T10:07:58Z</time>
      </trkpt>
      <trkpt lat="43.91436" lon="5.93127">
        <ele>418.2</ele>
        <time>2021-11-18T10:08:15Z</time>
      </trkpt>
      <trkpt lat="43.91431" lon="5.93132">
        <ele>419.2</ele>
        <time>2021-11-18T10:08:49Z</time>
      </trkpt>
      <trkpt lat="43.91424" lon="5.93137">
        <ele>420.3</ele>
        <time>2021-11-18T10:08:59Z</time>
      </trkpt>
      <trkpt lat="43.91414" lon="5.93145">
        <ele>421.6</ele>
        <time>2021-11-18T10:09:10Z</time>
      </trkpt>
      <trkpt lat="43.91406" lon="5.93153">
        <ele>421.9</ele>
        <time>2021-11-18T10:09:21Z</time>
      </trkpt>
      <trkpt lat="43.91397" lon="5.93165">
        <ele>423.3</ele>
        <time>2021-11-18T10:09:32Z</time>
      </trkpt>
      <trkpt lat="43.9139" lon="5.93175">
        <ele>424.6</ele>
        <time>2021-11-18T10:09:42Z</time>
      </trkpt>
      <trkpt lat="43.91384" lon="5.93183">
        <ele>425.7</ele>
        <time>2021-11-18T10:09:52Z</time>
      </trkpt>
      <trkpt lat="43.91376" lon="5.93192">
        <ele>427.1</ele>
        <time>2021-11-18T10:10:03Z</time>
      </trkpt>
      <trkpt lat="43.91367" lon="5.93203">
        <ele>428.1</ele>
        <time>2021-11-18T10:10:14Z</time>
      </trkpt>
      <trkpt lat="43.9136" lon="5.93212">
        <ele>429</ele>
        <time>2021-11-18T10:10:25Z</time>
      </trkpt>
      <trkpt lat="43.91353" lon="5.93222">
        <ele>430.6</ele>
        <time>2021-11-18T10:10:36Z</time>
      </trkpt>
      <trkpt lat="43.91342" lon="5.9323">
        <ele>430.7</ele>
        <time>2021-11-18T10:10:47Z</time>
      </trkpt>
      <trkpt lat="43.91332" lon="5.93236">
        <ele>431</ele>
        <time>2021-11-18T10:10:57Z</time>
      </trkpt>
      <trkpt lat="43.91324" lon="5.93244">
        <ele>431.4</ele>
        <time>2021-11-18T10:11:07Z</time>
      </trkpt>
      <trkpt lat="43.91314" lon="5.9325">
        <ele>432.7</ele>
        <time>2021-11-18T10:11:16Z</time>
      </trkpt>
      <trkpt lat="43.91305" lon="5.93259">
        <ele>433.4</ele>
        <time>2021-11-18T10:11:26Z</time>
      </trkpt>
      <trkpt lat="43.91295" lon="5.93267">
        <ele>433.7</ele>
        <time>2021-11-18T10:11:38Z</time>
      </trkpt>
      <trkpt lat="43.91287" lon="5.93276">
        <ele>435.2</ele>
        <time>2021-11-18T10:11:50Z</time>
      </trkpt>
      <trkpt lat="43.91282" lon="5.93284">
        <ele>436.2</ele>
        <time>2021-11-18T10:12:06Z</time>
      </trkpt>
      <trkpt lat="43.91276" lon="5.93295">
        <ele>437.7</ele>
        <time>2021-11-18T10:12:17Z</time>
      </trkpt>
      <trkpt lat="43.91271" lon="5.93308">
        <ele>438.5</ele>
        <time>2021-11-18T10:12:27Z</time>
      </trkpt>
      <trkpt lat="43.91265" lon="5.93319">
        <ele>438.8</ele>
        <time>2021-11-18T10:12:38Z</time>
      </trkpt>
      <trkpt lat="43.91257" lon="5.9333">
        <ele>440.2</ele>
        <time>2021-11-18T10:12:50Z</time>
      </trkpt>
      <trkpt lat="43.91248" lon="5.93342">
        <ele>441.5</ele>
        <time>2021-11-18T10:13:03Z</time>
      </trkpt>
      <trkpt lat="43.91238" lon="5.93355">
        <ele>442.2</ele>
        <time>2021-11-18T10:13:17Z</time>
      </trkpt>
      <trkpt lat="43.91231" lon="5.93372">
        <ele>443.1</ele>
        <time>2021-11-18T10:13:31Z</time>
      </trkpt>
      <trkpt lat="43.91223" lon="5.93387">
        <ele>444.6</ele>
        <time>2021-11-18T10:13:42Z</time>
      </trkpt>
      <trkpt lat="43.91216" lon="5.93399">
        <ele>445.1</ele>
        <time>2021-11-18T10:13:53Z</time>
      </trkpt>
      <trkpt lat="43.9121" lon="5.93412">
        <ele>446.1</ele>
        <time>2021-11-18T10:14:04Z</time>
      </trkpt>
      <trkpt lat="43.91204" lon="5.93425">
        <ele>447.8</ele>
        <time>2021-11-18T10:14:15Z</time>
      </trkpt>
      <trkpt lat="43.91198" lon="5.93437">
        <ele>449.5</ele>
        <time>2021-11-18T10:14:26Z</time>
      </trkpt>
      <trkpt lat="43.91194" lon="5.93448">
        <ele>451</ele>
        <time>2021-11-18T10:14:48Z</time>
      </trkpt>
      <trkpt lat="43.9119" lon="5.93461">
        <ele>451.3</ele>
        <time>2021-11-18T10:15:01Z</time>
      </trkpt>
      <trkpt lat="43.91185" lon="5.93474">
        <ele>452.2</ele>
        <time>2021-11-18T10:15:14Z</time>
      </trkpt>
      <trkpt lat="43.91179" lon="5.93487">
        <ele>454</ele>
        <time>2021-11-18T10:15:27Z</time>
      </trkpt>
      <trkpt lat="43.91176" lon="5.935">
        <ele>455.7</ele>
        <time>2021-11-18T10:15:40Z</time>
      </trkpt>
      <trkpt lat="43.9117" lon="5.93513">
        <ele>457.4</ele>
        <time>2021-11-18T10:15:53Z</time>
      </trkpt>
      <trkpt lat="43.91166" lon="5.93526">
        <ele>458.9</ele>
        <time>2021-11-18T10:16:05Z</time>
      </trkpt>
      <trkpt lat="43.91161" lon="5.93535">
        <ele>459.4</ele>
        <time>2021-11-18T10:16:22Z</time>
      </trkpt>
      <trkpt lat="43.91157" lon="5.93547">
        <ele>460.5</ele>
        <time>2021-11-18T10:16:37Z</time>
      </trkpt>
      <trkpt lat="43.91152" lon="5.93559">
        <ele>461.6</ele>
        <time>2021-11-18T10:16:50Z</time>
      </trkpt>
      <trkpt lat="43.91147" lon="5.93571">
        <ele>462.5</ele>
        <time>2021-11-18T10:17:03Z</time>
      </trkpt>
      <trkpt lat="43.91143" lon="5.93582">
        <ele>463.3</ele>
        <time>2021-11-18T10:17:17Z</time>
      </trkpt>
      <trkpt lat="43.91142" lon="5.9359">
        <ele>463.7</ele>
        <time>2021-11-18T10:18:30Z</time>
      </trkpt>
      <trkpt lat="43.91136" lon="5.93602">
        <ele>465.1</ele>
        <time>2021-11-18T10:18:41Z</time>
      </trkpt>
      <trkpt lat="43.91133" lon="5.93615">
        <ele>466.1</ele>
        <time>2021-11-18T10:18:52Z</time>
      </trkpt>
      <trkpt lat="43.91128" lon="5.93627">
        <ele>467.6</ele>
        <time>2021-11-18T10:19:10Z</time>
      </trkpt>
      <trkpt lat="43.91123" lon="5.93639">
        <ele>469.6</ele>
        <time>2021-11-18T10:19:26Z</time>
      </trkpt>
      <trkpt lat="43.91118" lon="5.93651">
        <ele>470.9</ele>
        <time>2021-11-18T10:19:40Z</time>
      </trkpt>
      <trkpt lat="43.91112" lon="5.93657">
        <ele>472.6</ele>
        <time>2021-11-18T10:19:56Z</time>
      </trkpt>
      <trkpt lat="43.91102" lon="5.9366">
        <ele>475.3</ele>
        <time>2021-11-18T10:20:14Z</time>
      </trkpt>
      <trkpt lat="43.91095" lon="5.93656">
        <ele>476.9</ele>
        <time>2021-11-18T10:20:32Z</time>
      </trkpt>
      <trkpt lat="43.91093" lon="5.93654">
        <ele>477.2</ele>
        <time>2021-11-18T10:21:22Z</time>
      </trkpt>
      <trkpt lat="43.91086" lon="5.93658">
        <ele>479.1</ele>
        <time>2021-11-18T10:21:43Z</time>
      </trkpt>
      <trkpt lat="43.91076" lon="5.93659">
        <ele>481.2</ele>
        <time>2021-11-18T10:21:55Z</time>
      </trkpt>
      <trkpt lat="43.91068" lon="5.93663">
        <ele>483.2</ele>
        <time>2021-11-18T10:22:08Z</time>
      </trkpt>
      <trkpt lat="43.9106" lon="5.93673">
        <ele>484.7</ele>
        <time>2021-11-18T10:22:20Z</time>
      </trkpt>
      <trkpt lat="43.91056" lon="5.93688">
        <ele>485.1</ele>
        <time>2021-11-18T10:22:31Z</time>
      </trkpt>
      <trkpt lat="43.91053" lon="5.93705">
        <ele>485.7</ele>
        <time>2021-11-18T10:22:42Z</time>
      </trkpt>
      <trkpt lat="43.91047" lon="5.93721">
        <ele>487.1</ele>
        <time>2021-11-18T10:22:52Z</time>
      </trkpt>
      <trkpt lat="43.91044" lon="5.93733">
        <ele>487.9</ele>
        <time>2021-11-18T10:23:02Z</time>
      </trkpt>
      <trkpt lat="43.91041" lon="5.93748">
        <ele>488.8</ele>
        <time>2021-11-18T10:23:13Z</time>
      </trkpt>
      <trkpt lat="43.9104" lon="5.93761">
        <ele>487.7</ele>
        <time>2021-11-18T10:23:38Z</time>
      </trkpt>
      <trkpt lat="43.91037" lon="5.93771">
        <ele>487.3</ele>
        <time>2021-11-18T10:23:47Z</time>
      </trkpt>
      <trkpt lat="43.91033" lon="5.93784">
        <ele>487.1</ele>
        <time>2021-11-18T10:23:56Z</time>
      </trkpt>
      <trkpt lat="43.91028" lon="5.93797">
        <ele>486.9</ele>
        <time>2021-11-18T10:24:05Z</time>
      </trkpt>
      <trkpt lat="43.91019" lon="5.9381">
        <ele>488.8</ele>
        <time>2021-11-18T10:24:15Z</time>
      </trkpt>
      <trkpt lat="43.91014" lon="5.9382">
        <ele>489.8</ele>
        <time>2021-11-18T10:24:27Z</time>
      </trkpt>
      <trkpt lat="43.91004" lon="5.93829">
        <ele>491</ele>
        <time>2021-11-18T10:25:21Z</time>
      </trkpt>
      <trkpt lat="43.90994" lon="5.93843">
        <ele>493.8</ele>
        <time>2021-11-18T10:25:36Z</time>
      </trkpt>
      <trkpt lat="43.90989" lon="5.93858">
        <ele>496.2</ele>
        <time>2021-11-18T10:25:49Z</time>
      </trkpt>
      <trkpt lat="43.90983" lon="5.9387">
        <ele>498</ele>
        <time>2021-11-18T10:26:00Z</time>
      </trkpt>
      <trkpt lat="43.9098" lon="5.93884">
        <ele>498.7</ele>
        <time>2021-11-18T10:26:12Z</time>
      </trkpt>
      <trkpt lat="43.90979" lon="5.9389">
        <ele>498.9</ele>
        <time>2021-11-18T10:26:37Z</time>
      </trkpt>
      <trkpt lat="43.9099" lon="5.9389">
        <ele>498.6</ele>
        <time>2021-11-18T10:27:44Z</time>
      </trkpt>
      <trkpt lat="43.90984" lon="5.93895">
        <ele>499.4</ele>
        <time>2021-11-18T10:28:46Z</time>
      </trkpt>
      <trkpt lat="43.90972" lon="5.93907">
        <ele>501</ele>
        <time>2021-11-18T10:29:02Z</time>
      </trkpt>
      <trkpt lat="43.90965" lon="5.9392">
        <ele>503.5</ele>
        <time>2021-11-18T10:29:21Z</time>
      </trkpt>
      <trkpt lat="43.90975" lon="5.93925">
        <ele>504.1</ele>
        <time>2021-11-18T10:29:42Z</time>
      </trkpt>
      <trkpt lat="43.90985" lon="5.93932">
        <ele>505.5</ele>
        <time>2021-11-18T10:29:59Z</time>
      </trkpt>
      <trkpt lat="43.90989" lon="5.93942">
        <ele>506.8</ele>
        <time>2021-11-18T10:30:17Z</time>
      </trkpt>
      <trkpt lat="43.90984" lon="5.93954">
        <ele>508.5</ele>
        <time>2021-11-18T10:30:38Z</time>
      </trkpt>
      <trkpt lat="43.90976" lon="5.93967">
        <ele>512</ele>
        <time>2021-11-18T10:30:57Z</time>
      </trkpt>
      <trkpt lat="43.90966" lon="5.93976">
        <ele>514.7</ele>
        <time>2021-11-18T10:31:13Z</time>
      </trkpt>
      <trkpt lat="43.90959" lon="5.93987">
        <ele>516.5</ele>
        <time>2021-11-18T10:31:29Z</time>
      </trkpt>
      <trkpt lat="43.90954" lon="5.93997">
        <ele>518.6</ele>
        <time>2021-11-18T10:31:50Z</time>
      </trkpt>
      <trkpt lat="43.90944" lon="5.94006">
        <ele>521.7</ele>
        <time>2021-11-18T10:32:08Z</time>
      </trkpt>
      <trkpt lat="43.90939" lon="5.94017">
        <ele>523.4</ele>
        <time>2021-11-18T10:32:27Z</time>
      </trkpt>
      <trkpt lat="43.90934" lon="5.94029">
        <ele>525.6</ele>
        <time>2021-11-18T10:32:46Z</time>
      </trkpt>
      <trkpt lat="43.90927" lon="5.94041">
        <ele>527.7</ele>
        <time>2021-11-18T10:33:02Z</time>
      </trkpt>
      <trkpt lat="43.90921" lon="5.94051">
        <ele>530.2</ele>
        <time>2021-11-18T10:33:17Z</time>
      </trkpt>
      <trkpt lat="43.90914" lon="5.9406">
        <ele>532.6</ele>
        <time>2021-11-18T10:33:32Z</time>
      </trkpt>
      <trkpt lat="43.9091" lon="5.9407">
        <ele>534.1</ele>
        <time>2021-11-18T10:33:52Z</time>
      </trkpt>
      <trkpt lat="43.90904" lon="5.94082">
        <ele>536.2</ele>
        <time>2021-11-18T10:34:05Z</time>
      </trkpt>
      <trkpt lat="43.90901" lon="5.94094">
        <ele>537.8</ele>
        <time>2021-11-18T10:34:19Z</time>
      </trkpt>
      <trkpt lat="43.90899" lon="5.94107">
        <ele>539.4</ele>
        <time>2021-11-18T10:34:33Z</time>
      </trkpt>
      <trkpt lat="43.90891" lon="5.94121">
        <ele>542.6</ele>
        <time>2021-11-18T10:34:51Z</time>
      </trkpt>
      <trkpt lat="43.90887" lon="5.94136">
        <ele>544.7</ele>
        <time>2021-11-18T10:35:04Z</time>
      </trkpt>
      <trkpt lat="43.90885" lon="5.94151">
        <ele>545.7</ele>
        <time>2021-11-18T10:35:18Z</time>
      </trkpt>
      <trkpt lat="43.90882" lon="5.94166">
        <ele>547.1</ele>
        <time>2021-11-18T10:35:31Z</time>
      </trkpt>
      <trkpt lat="43.90879" lon="5.94176">
        <ele>548.2</ele>
        <time>2021-11-18T10:35:44Z</time>
      </trkpt>
      <trkpt lat="43.90871" lon="5.94189">
        <ele>550.7</ele>
        <time>2021-11-18T10:35:59Z</time>
      </trkpt>
      <trkpt lat="43.90866" lon="5.94202">
        <ele>553.1</ele>
        <time>2021-11-18T10:36:16Z</time>
      </trkpt>
      <trkpt lat="43.90861" lon="5.94217">
        <ele>556.5</ele>
        <time>2021-11-18T10:36:36Z</time>
      </trkpt>
      <trkpt lat="43.90854" lon="5.9423">
        <ele>559</ele>
        <time>2021-11-18T10:36:54Z</time>
      </trkpt>
      <trkpt lat="43.9085" lon="5.94243">
        <ele>561.1</ele>
        <time>2021-11-18T10:37:13Z</time>
      </trkpt>
      <trkpt lat="43.90847" lon="5.94258">
        <ele>563.9</ele>
        <time>2021-11-18T10:37:33Z</time>
      </trkpt>
      <trkpt lat="43.90843" lon="5.94271">
        <ele>566.7</ele>
        <time>2021-11-18T10:37:51Z</time>
      </trkpt>
      <trkpt lat="43.90842" lon="5.94285">
        <ele>569</ele>
        <time>2021-11-18T10:38:08Z</time>
      </trkpt>
      <trkpt lat="43.9084" lon="5.943">
        <ele>571.4</ele>
        <time>2021-11-18T10:38:25Z</time>
      </trkpt>
      <trkpt lat="43.90838" lon="5.94312">
        <ele>573.4</ele>
        <time>2021-11-18T10:38:40Z</time>
      </trkpt>
      <trkpt lat="43.90835" lon="5.94327">
        <ele>576.4</ele>
        <time>2021-11-18T10:38:58Z</time>
      </trkpt>
      <trkpt lat="43.90831" lon="5.94342">
        <ele>579.3</ele>
        <time>2021-11-18T10:39:15Z</time>
      </trkpt>
      <trkpt lat="43.90828" lon="5.94353">
        <ele>581.1</ele>
        <time>2021-11-18T10:39:28Z</time>
      </trkpt>
      <trkpt lat="43.90827" lon="5.94367">
        <ele>582.7</ele>
        <time>2021-11-18T10:39:43Z</time>
      </trkpt>
      <trkpt lat="43.90822" lon="5.9438">
        <ele>584.7</ele>
        <time>2021-11-18T10:40:01Z</time>
      </trkpt>
      <trkpt lat="43.90819" lon="5.94393">
        <ele>586.4</ele>
        <time>2021-11-18T10:40:15Z</time>
      </trkpt>
      <trkpt lat="43.90814" lon="5.94407">
        <ele>588.2</ele>
        <time>2021-11-18T10:40:30Z</time>
      </trkpt>
      <trkpt lat="43.90814" lon="5.94421">
        <ele>589.1</ele>
        <time>2021-11-18T10:40:44Z</time>
      </trkpt>
      <trkpt lat="43.90808" lon="5.94435">
        <ele>591.7</ele>
        <time>2021-11-18T10:40:57Z</time>
      </trkpt>
      <trkpt lat="43.90803" lon="5.94448">
        <ele>593.2</ele>
        <time>2021-11-18T10:41:10Z</time>
      </trkpt>
      <trkpt lat="43.90796" lon="5.9446">
        <ele>593.8</ele>
        <time>2021-11-18T10:41:23Z</time>
      </trkpt>
      <trkpt lat="43.90794" lon="5.94474">
        <ele>594.5</ele>
        <time>2021-11-18T10:41:35Z</time>
      </trkpt>
      <trkpt lat="43.90796" lon="5.94487">
        <ele>594.9</ele>
        <time>2021-11-18T10:41:45Z</time>
      </trkpt>
      <trkpt lat="43.90799" lon="5.94499">
        <ele>595</ele>
        <time>2021-11-18T10:41:55Z</time>
      </trkpt>
      <trkpt lat="43.908" lon="5.94512">
        <ele>595.4</ele>
        <time>2021-11-18T10:42:05Z</time>
      </trkpt>
      <trkpt lat="43.90798" lon="5.94525">
        <ele>596.2</ele>
        <time>2021-11-18T10:42:15Z</time>
      </trkpt>
      <trkpt lat="43.90794" lon="5.94537">
        <ele>597.9</ele>
        <time>2021-11-18T10:42:25Z</time>
      </trkpt>
      <trkpt lat="43.90791" lon="5.94549">
        <ele>599.4</ele>
        <time>2021-11-18T10:42:35Z</time>
      </trkpt>
      <trkpt lat="43.90791" lon="5.94561">
        <ele>600.5</ele>
        <time>2021-11-18T10:42:46Z</time>
      </trkpt>
      <trkpt lat="43.90791" lon="5.9457">
        <ele>601.5</ele>
        <time>2021-11-18T10:42:55Z</time>
      </trkpt>
      <trkpt lat="43.90792" lon="5.94576">
        <ele>601.8</ele>
        <time>2021-11-18T10:43:04Z</time>
      </trkpt>
      <trkpt lat="43.90792" lon="5.94588">
        <ele>603</ele>
        <time>2021-11-18T10:43:15Z</time>
      </trkpt>
      <trkpt lat="43.90793" lon="5.94595">
        <ele>603.6</ele>
        <time>2021-11-18T10:43:26Z</time>
      </trkpt>
      <trkpt lat="43.90796" lon="5.94611">
        <ele>605.1</ele>
        <time>2021-11-18T10:43:38Z</time>
      </trkpt>
      <trkpt lat="43.90796" lon="5.94626">
        <ele>606</ele>
        <time>2021-11-18T10:43:49Z</time>
      </trkpt>
      <trkpt lat="43.90796" lon="5.94643">
        <ele>606.9</ele>
        <time>2021-11-18T10:44:00Z</time>
      </trkpt>
      <trkpt lat="43.90798" lon="5.94654">
        <ele>607.3</ele>
        <time>2021-11-18T10:44:12Z</time>
      </trkpt>
      <trkpt lat="43.90801" lon="5.94665">
        <ele>607.9</ele>
        <time>2021-11-18T10:44:24Z</time>
      </trkpt>
      <trkpt lat="43.90802" lon="5.94677">
        <ele>608.3</ele>
        <time>2021-11-18T10:44:57Z</time>
      </trkpt>
      <trkpt lat="43.908" lon="5.94677">
        <ele>608.3</ele>
        <time>2021-11-18T10:56:45Z</time>
      </trkpt>
      <trkpt lat="43.90788" lon="5.94675">
        <ele>608.1</ele>
        <time>2021-11-18T10:56:55Z</time>
      </trkpt>
      <trkpt lat="43.90777" lon="5.94674">
        <ele>608</ele>
        <time>2021-11-18T10:57:05Z</time>
      </trkpt>
      <trkpt lat="43.90767" lon="5.94668">
        <ele>607.6</ele>
        <time>2021-11-18T10:57:16Z</time>
      </trkpt>
      <trkpt lat="43.90758" lon="5.94661">
        <ele>607.4</ele>
        <time>2021-11-18T10:57:26Z</time>
      </trkpt>
      <trkpt lat="43.90747" lon="5.94655">
        <ele>607.2</ele>
        <time>2021-11-18T10:57:36Z</time>
      </trkpt>
      <trkpt lat="43.90735" lon="5.94654">
        <ele>606.4</ele>
        <time>2021-11-18T10:57:47Z</time>
      </trkpt>
      <trkpt lat="43.90724" lon="5.94652">
        <ele>605.6</ele>
        <time>2021-11-18T10:57:58Z</time>
      </trkpt>
      <trkpt lat="43.90712" lon="5.94652">
        <ele>605.3</ele>
        <time>2021-11-18T10:58:11Z</time>
      </trkpt>
      <trkpt lat="43.90701" lon="5.94648">
        <ele>605.5</ele>
        <time>2021-11-18T10:58:21Z</time>
      </trkpt>
      <trkpt lat="43.90691" lon="5.94646">
        <ele>605.5</ele>
        <time>2021-11-18T10:58:32Z</time>
      </trkpt>
      <trkpt lat="43.90679" lon="5.94644">
        <ele>605.6</ele>
        <time>2021-11-18T10:58:42Z</time>
      </trkpt>
      <trkpt lat="43.9067" lon="5.9464">
        <ele>605.9</ele>
        <time>2021-11-18T10:58:51Z</time>
      </trkpt>
      <trkpt lat="43.9066" lon="5.94634">
        <ele>605.8</ele>
        <time>2021-11-18T10:59:00Z</time>
      </trkpt>
      <trkpt lat="43.90652" lon="5.94627">
        <ele>605.6</ele>
        <time>2021-11-18T10:59:09Z</time>
      </trkpt>
      <trkpt lat="43.90646" lon="5.94617">
        <ele>605.2</ele>
        <time>2021-11-18T10:59:18Z</time>
      </trkpt>
      <trkpt lat="43.9064" lon="5.94608">
        <ele>604.9</ele>
        <time>2021-11-18T10:59:27Z</time>
      </trkpt>
      <trkpt lat="43.9063" lon="5.94601">
        <ele>604.4</ele>
        <time>2021-11-18T10:59:37Z</time>
      </trkpt>
      <trkpt lat="43.9062" lon="5.94595">
        <ele>604.1</ele>
        <time>2021-11-18T10:59:46Z</time>
      </trkpt>
      <trkpt lat="43.90611" lon="5.94588">
        <ele>604</ele>
        <time>2021-11-18T10:59:58Z</time>
      </trkpt>
      <trkpt lat="43.90604" lon="5.94573">
        <ele>604</ele>
        <time>2021-11-18T11:00:11Z</time>
      </trkpt>
      <trkpt lat="43.90596" lon="5.9456">
        <ele>604.2</ele>
        <time>2021-11-18T11:00:21Z</time>
      </trkpt>
      <trkpt lat="43.90586" lon="5.94549">
        <ele>604.5</ele>
        <time>2021-11-18T11:00:33Z</time>
      </trkpt>
      <trkpt lat="43.90577" lon="5.94544">
        <ele>604.7</ele>
        <time>2021-11-18T11:00:42Z</time>
      </trkpt>
      <trkpt lat="43.90567" lon="5.94537">
        <ele>605.2</ele>
        <time>2021-11-18T11:00:51Z</time>
      </trkpt>
      <trkpt lat="43.9056" lon="5.94528">
        <ele>606</ele>
        <time>2021-11-18T11:00:59Z</time>
      </trkpt>
      <trkpt lat="43.90553" lon="5.94519">
        <ele>606.3</ele>
        <time>2021-11-18T11:01:07Z</time>
      </trkpt>
      <trkpt lat="43.90544" lon="5.94512">
        <ele>606.3</ele>
        <time>2021-11-18T11:01:16Z</time>
      </trkpt>
      <trkpt lat="43.90535" lon="5.94507">
        <ele>606.2</ele>
        <time>2021-11-18T11:01:25Z</time>
      </trkpt>
      <trkpt lat="43.90526" lon="5.94504">
        <ele>605.9</ele>
        <time>2021-11-18T11:01:34Z</time>
      </trkpt>
      <trkpt lat="43.90517" lon="5.945">
        <ele>605.6</ele>
        <time>2021-11-18T11:01:42Z</time>
      </trkpt>
      <trkpt lat="43.90508" lon="5.94496">
        <ele>604.9</ele>
        <time>2021-11-18T11:01:51Z</time>
      </trkpt>
      <trkpt lat="43.90499" lon="5.94491">
        <ele>604.3</ele>
        <time>2021-11-18T11:02:00Z</time>
      </trkpt>
      <trkpt lat="43.9049" lon="5.94483">
        <ele>603.6</ele>
        <time>2021-11-18T11:02:09Z</time>
      </trkpt>
      <trkpt lat="43.9048" lon="5.94476">
        <ele>603.2</ele>
        <time>2021-11-18T11:02:19Z</time>
      </trkpt>
      <trkpt lat="43.90472" lon="5.94468">
        <ele>602.7</ele>
        <time>2021-11-18T11:02:28Z</time>
      </trkpt>
      <trkpt lat="43.90465" lon="5.94458">
        <ele>602.4</ele>
        <time>2021-11-18T11:02:38Z</time>
      </trkpt>
      <trkpt lat="43.90456" lon="5.94448">
        <ele>602.3</ele>
        <time>2021-11-18T11:02:48Z</time>
      </trkpt>
      <trkpt lat="43.90448" lon="5.9444">
        <ele>602.6</ele>
        <time>2021-11-18T11:02:57Z</time>
      </trkpt>
      <trkpt lat="43.90441" lon="5.9443">
        <ele>602.6</ele>
        <time>2021-11-18T11:03:06Z</time>
      </trkpt>
      <trkpt lat="43.90435" lon="5.9442">
        <ele>602.5</ele>
        <time>2021-11-18T11:03:15Z</time>
      </trkpt>
      <trkpt lat="43.90427" lon="5.9441">
        <ele>602.5</ele>
        <time>2021-11-18T11:03:24Z</time>
      </trkpt>
      <trkpt lat="43.90422" lon="5.94398">
        <ele>602.3</ele>
        <time>2021-11-18T11:03:33Z</time>
      </trkpt>
      <trkpt lat="43.9042" lon="5.94384">
        <ele>602</ele>
        <time>2021-11-18T11:03:42Z</time>
      </trkpt>
      <trkpt lat="43.9042" lon="5.94373">
        <ele>602</ele>
        <time>2021-11-18T11:03:53Z</time>
      </trkpt>
      <trkpt lat="43.90418" lon="5.94356">
        <ele>602</ele>
        <time>2021-11-18T11:04:06Z</time>
      </trkpt>
      <trkpt lat="43.90416" lon="5.94337">
        <ele>601.8</ele>
        <time>2021-11-18T11:04:17Z</time>
      </trkpt>
      <trkpt lat="43.90412" lon="5.94321">
        <ele>601.9</ele>
        <time>2021-11-18T11:04:26Z</time>
      </trkpt>
      <trkpt lat="43.90408" lon="5.94309">
        <ele>602.1</ele>
        <time>2021-11-18T11:04:35Z</time>
      </trkpt>
      <trkpt lat="43.90399" lon="5.94299">
        <ele>602</ele>
        <time>2021-11-18T11:04:45Z</time>
      </trkpt>
      <trkpt lat="43.90389" lon="5.94288">
        <ele>602.2</ele>
        <time>2021-11-18T11:04:54Z</time>
      </trkpt>
      <trkpt lat="43.90381" lon="5.94282">
        <ele>602.2</ele>
        <time>2021-11-18T11:05:03Z</time>
      </trkpt>
      <trkpt lat="43.9037" lon="5.94278">
        <ele>602.3</ele>
        <time>2021-11-18T11:05:12Z</time>
      </trkpt>
      <trkpt lat="43.90362" lon="5.94272">
        <ele>602.2</ele>
        <time>2021-11-18T11:05:21Z</time>
      </trkpt>
      <trkpt lat="43.90354" lon="5.94264">
        <ele>602.4</ele>
        <time>2021-11-18T11:05:30Z</time>
      </trkpt>
      <trkpt lat="43.90345" lon="5.94258">
        <ele>602.6</ele>
        <time>2021-11-18T11:05:39Z</time>
      </trkpt>
      <trkpt lat="43.90334" lon="5.94252">
        <ele>602.8</ele>
        <time>2021-11-18T11:08:39Z</time>
      </trkpt>
      <trkpt lat="43.90326" lon="5.94241">
        <ele>602.9</ele>
        <time>2021-11-18T11:08:51Z</time>
      </trkpt>
      <trkpt lat="43.90319" lon="5.94233">
        <ele>602.7</ele>
        <time>2021-11-18T11:09:03Z</time>
      </trkpt>
      <trkpt lat="43.9031" lon="5.94227">
        <ele>602.3</ele>
        <time>2021-11-18T11:09:16Z</time>
      </trkpt>
      <trkpt lat="43.90303" lon="5.9422">
        <ele>601.6</ele>
        <time>2021-11-18T11:09:46Z</time>
      </trkpt>
      <trkpt lat="43.90299" lon="5.94208">
        <ele>599.9</ele>
        <time>2021-11-18T11:10:01Z</time>
      </trkpt>
      <trkpt lat="43.90295" lon="5.94198">
        <ele>598.5</ele>
        <time>2021-11-18T11:10:12Z</time>
      </trkpt>
      <trkpt lat="43.90288" lon="5.94185">
        <ele>596.7</ele>
        <time>2021-11-18T11:10:25Z</time>
      </trkpt>
      <trkpt lat="43.90284" lon="5.94174">
        <ele>595.1</ele>
        <time>2021-11-18T11:10:36Z</time>
      </trkpt>
      <trkpt lat="43.90281" lon="5.9416">
        <ele>593.6</ele>
        <time>2021-11-18T11:10:48Z</time>
      </trkpt>
      <trkpt lat="43.90277" lon="5.94148">
        <ele>592.5</ele>
        <time>2021-11-18T11:10:58Z</time>
      </trkpt>
      <trkpt lat="43.90273" lon="5.9414">
        <ele>591.5</ele>
        <time>2021-11-18T11:11:16Z</time>
      </trkpt>
      <trkpt lat="43.90272" lon="5.94127">
        <ele>590.8</ele>
        <time>2021-11-18T11:11:27Z</time>
      </trkpt>
      <trkpt lat="43.90268" lon="5.94111">
        <ele>590</ele>
        <time>2021-11-18T11:11:38Z</time>
      </trkpt>
      <trkpt lat="43.90262" lon="5.94097">
        <ele>589.6</ele>
        <time>2021-11-18T11:11:48Z</time>
      </trkpt>
      <trkpt lat="43.90257" lon="5.94085">
        <ele>589.5</ele>
        <time>2021-11-18T11:11:57Z</time>
      </trkpt>
      <trkpt lat="43.9025" lon="5.94077">
        <ele>590.2</ele>
        <time>2021-11-18T11:12:05Z</time>
      </trkpt>
      <trkpt lat="43.90246" lon="5.94067">
        <ele>590</ele>
        <time>2021-11-18T11:12:14Z</time>
      </trkpt>
      <trkpt lat="43.90239" lon="5.94057">
        <ele>589.7</ele>
        <time>2021-11-18T11:12:23Z</time>
      </trkpt>
      <trkpt lat="43.90232" lon="5.94048">
        <ele>589.4</ele>
        <time>2021-11-18T11:12:32Z</time>
      </trkpt>
      <trkpt lat="43.90225" lon="5.94042">
        <ele>589.1</ele>
        <time>2021-11-18T11:12:41Z</time>
      </trkpt>
      <trkpt lat="43.90217" lon="5.94034">
        <ele>588.5</ele>
        <time>2021-11-18T11:12:51Z</time>
      </trkpt>
      <trkpt lat="43.9021" lon="5.94025">
        <ele>587.9</ele>
        <time>2021-11-18T11:13:00Z</time>
      </trkpt>
      <trkpt lat="43.90202" lon="5.94018">
        <ele>586.9</ele>
        <time>2021-11-18T11:13:09Z</time>
      </trkpt>
      <trkpt lat="43.90193" lon="5.94011">
        <ele>585.9</ele>
        <time>2021-11-18T11:13:19Z</time>
      </trkpt>
      <trkpt lat="43.90186" lon="5.94001">
        <ele>585.5</ele>
        <time>2021-11-18T11:13:28Z</time>
      </trkpt>
      <trkpt lat="43.90178" lon="5.93993">
        <ele>584.9</ele>
        <time>2021-11-18T11:13:37Z</time>
      </trkpt>
      <trkpt lat="43.90169" lon="5.93987">
        <ele>584.2</ele>
        <time>2021-11-18T11:13:46Z</time>
      </trkpt>
      <trkpt lat="43.90161" lon="5.93983">
        <ele>583.2</ele>
        <time>2021-11-18T11:13:54Z</time>
      </trkpt>
      <trkpt lat="43.90153" lon="5.93977">
        <ele>582.5</ele>
        <time>2021-11-18T11:14:02Z</time>
      </trkpt>
      <trkpt lat="43.90145" lon="5.93972">
        <ele>582.2</ele>
        <time>2021-11-18T11:14:11Z</time>
      </trkpt>
      <trkpt lat="43.90136" lon="5.93965">
        <ele>581.8</ele>
        <time>2021-11-18T11:14:21Z</time>
      </trkpt>
      <trkpt lat="43.90128" lon="5.93958">
        <ele>581.6</ele>
        <time>2021-11-18T11:14:31Z</time>
      </trkpt>
      <trkpt lat="43.90119" lon="5.93954">
        <ele>580.4</ele>
        <time>2021-11-18T11:14:41Z</time>
      </trkpt>
      <trkpt lat="43.90109" lon="5.9395">
        <ele>579.3</ele>
        <time>2021-11-18T11:14:51Z</time>
      </trkpt>
      <trkpt lat="43.90098" lon="5.93946">
        <ele>578.2</ele>
        <time>2021-11-18T11:15:02Z</time>
      </trkpt>
      <trkpt lat="43.90088" lon="5.9394">
        <ele>577.6</ele>
        <time>2021-11-18T11:15:12Z</time>
      </trkpt>
      <trkpt lat="43.90079" lon="5.93934">
        <ele>576.8</ele>
        <time>2021-11-18T11:15:21Z</time>
      </trkpt>
      <trkpt lat="43.90072" lon="5.93923">
        <ele>576.5</ele>
        <time>2021-11-18T11:15:30Z</time>
      </trkpt>
      <trkpt lat="43.9007" lon="5.93909">
        <ele>577.2</ele>
        <time>2021-11-18T11:15:39Z</time>
      </trkpt>
      <trkpt lat="43.90067" lon="5.93899">
        <ele>576.6</ele>
        <time>2021-11-18T11:15:48Z</time>
      </trkpt>
      <trkpt lat="43.90062" lon="5.93887">
        <ele>575.4</ele>
        <time>2021-11-18T11:15:58Z</time>
      </trkpt>
      <trkpt lat="43.90057" lon="5.93877">
        <ele>574.6</ele>
        <time>2021-11-18T11:16:07Z</time>
      </trkpt>
      <trkpt lat="43.90051" lon="5.93867">
        <ele>573.9</ele>
        <time>2021-11-18T11:16:15Z</time>
      </trkpt>
      <trkpt lat="43.90044" lon="5.93857">
        <ele>573</ele>
        <time>2021-11-18T11:16:24Z</time>
      </trkpt>
      <trkpt lat="43.90038" lon="5.93849">
        <ele>572</ele>
        <time>2021-11-18T11:16:32Z</time>
      </trkpt>
      <trkpt lat="43.9003" lon="5.93843">
        <ele>570.4</ele>
        <time>2021-11-18T11:16:41Z</time>
      </trkpt>
      <trkpt lat="43.90022" lon="5.93835">
        <ele>569.3</ele>
        <time>2021-11-18T11:16:51Z</time>
      </trkpt>
      <trkpt lat="43.90015" lon="5.93824">
        <ele>568.3</ele>
        <time>2021-11-18T11:17:01Z</time>
      </trkpt>
      <trkpt lat="43.90013" lon="5.93807">
        <ele>568.6</ele>
        <time>2021-11-18T11:17:12Z</time>
      </trkpt>
      <trkpt lat="43.90007" lon="5.93793">
        <ele>567.1</ele>
        <time>2021-11-18T11:17:25Z</time>
      </trkpt>
      <trkpt lat="43.90003" lon="5.93779">
        <ele>565.7</ele>
        <time>2021-11-18T11:17:37Z</time>
      </trkpt>
      <trkpt lat="43.89997" lon="5.93764">
        <ele>564</ele>
        <time>2021-11-18T11:17:49Z</time>
      </trkpt>
      <trkpt lat="43.89995" lon="5.93751">
        <ele>563.3</ele>
        <time>2021-11-18T11:18:00Z</time>
      </trkpt>
      <trkpt lat="43.89995" lon="5.93738">
        <ele>562.5</ele>
        <time>2021-11-18T11:18:11Z</time>
      </trkpt>
      <trkpt lat="43.89997" lon="5.93724">
        <ele>561.8</ele>
        <time>2021-11-18T11:18:22Z</time>
      </trkpt>
      <trkpt lat="43.90002" lon="5.93712">
        <ele>561</ele>
        <time>2021-11-18T11:18:32Z</time>
      </trkpt>
      <trkpt lat="43.90007" lon="5.93701">
        <ele>559.7</ele>
        <time>2021-11-18T11:18:41Z</time>
      </trkpt>
      <trkpt lat="43.90013" lon="5.93691">
        <ele>558.6</ele>
        <time>2021-11-18T11:18:50Z</time>
      </trkpt>
      <trkpt lat="43.9002" lon="5.93681">
        <ele>557.5</ele>
        <time>2021-11-18T11:18:59Z</time>
      </trkpt>
      <trkpt lat="43.90028" lon="5.93673">
        <ele>556.7</ele>
        <time>2021-11-18T11:19:08Z</time>
      </trkpt>
      <trkpt lat="43.90036" lon="5.93667">
        <ele>555.7</ele>
        <time>2021-11-18T11:19:18Z</time>
      </trkpt>
      <trkpt lat="43.90044" lon="5.93665">
        <ele>555.2</ele>
        <time>2021-11-18T11:19:27Z</time>
      </trkpt>
      <trkpt lat="43.90048" lon="5.93658">
        <ele>554.4</ele>
        <time>2021-11-18T11:20:11Z</time>
      </trkpt>
      <trkpt lat="43.90057" lon="5.93651">
        <ele>553.3</ele>
        <time>2021-11-18T11:20:39Z</time>
      </trkpt>
      <trkpt lat="43.90067" lon="5.93653">
        <ele>553.3</ele>
        <time>2021-11-18T11:20:50Z</time>
      </trkpt>
      <trkpt lat="43.90076" lon="5.93656">
        <ele>553.6</ele>
        <time>2021-11-18T11:20:59Z</time>
      </trkpt>
      <trkpt lat="43.90087" lon="5.93658">
        <ele>553.5</ele>
        <time>2021-11-18T11:21:09Z</time>
      </trkpt>
      <trkpt lat="43.90099" lon="5.93662">
        <ele>553.1</ele>
        <time>2021-11-18T11:21:18Z</time>
      </trkpt>
      <trkpt lat="43.90108" lon="5.93665">
        <ele>552.9</ele>
        <time>2021-11-18T11:21:27Z</time>
      </trkpt>
      <trkpt lat="43.90115" lon="5.93669">
        <ele>552.6</ele>
        <time>2021-11-18T11:21:35Z</time>
      </trkpt>
      <trkpt lat="43.90123" lon="5.93675">
        <ele>552.1</ele>
        <time>2021-11-18T11:21:44Z</time>
      </trkpt>
      <trkpt lat="43.90132" lon="5.93683">
        <ele>552.1</ele>
        <time>2021-11-18T11:21:53Z</time>
      </trkpt>
      <trkpt lat="43.9014" lon="5.93693">
        <ele>552.8</ele>
        <time>2021-11-18T11:22:04Z</time>
      </trkpt>
      <trkpt lat="43.90151" lon="5.93702">
        <ele>553.2</ele>
        <time>2021-11-18T11:22:15Z</time>
      </trkpt>
      <trkpt lat="43.90163" lon="5.93702">
        <ele>552.4</ele>
        <time>2021-11-18T11:22:25Z</time>
      </trkpt>
      <trkpt lat="43.90172" lon="5.93702">
        <ele>552.8</ele>
        <time>2021-11-18T11:22:35Z</time>
      </trkpt>
      <trkpt lat="43.90182" lon="5.93699">
        <ele>553.4</ele>
        <time>2021-11-18T11:22:45Z</time>
      </trkpt>
      <trkpt lat="43.90193" lon="5.93694">
        <ele>553.8</ele>
        <time>2021-11-18T11:22:56Z</time>
      </trkpt>
      <trkpt lat="43.90202" lon="5.93688">
        <ele>553.8</ele>
        <time>2021-11-18T11:23:05Z</time>
      </trkpt>
      <trkpt lat="43.90211" lon="5.93681">
        <ele>553.8</ele>
        <time>2021-11-18T11:23:14Z</time>
      </trkpt>
      <trkpt lat="43.90217" lon="5.93671">
        <ele>553.6</ele>
        <time>2021-11-18T11:23:23Z</time>
      </trkpt>
      <trkpt lat="43.90223" lon="5.93659">
        <ele>553.4</ele>
        <time>2021-11-18T11:23:32Z</time>
      </trkpt>
      <trkpt lat="43.90227" lon="5.93646">
        <ele>552.7</ele>
        <time>2021-11-18T11:23:40Z</time>
      </trkpt>
      <trkpt lat="43.90233" lon="5.9364">
        <ele>552.5</ele>
        <time>2021-11-18T11:24:11Z</time>
      </trkpt>
      <trkpt lat="43.90238" lon="5.93628">
        <ele>551.9</ele>
        <time>2021-11-18T11:24:23Z</time>
      </trkpt>
      <trkpt lat="43.90245" lon="5.93615">
        <ele>551.6</ele>
        <time>2021-11-18T11:24:32Z</time>
      </trkpt>
      <trkpt lat="43.9025" lon="5.93603">
        <ele>552</ele>
        <time>2021-11-18T11:24:40Z</time>
      </trkpt>
      <trkpt lat="43.90254" lon="5.93591">
        <ele>552.1</ele>
        <time>2021-11-18T11:24:48Z</time>
      </trkpt>
      <trkpt lat="43.90257" lon="5.93579">
        <ele>552.3</ele>
        <time>2021-11-18T11:24:57Z</time>
      </trkpt>
      <trkpt lat="43.9026" lon="5.93566">
        <ele>552.4</ele>
        <time>2021-11-18T11:25:08Z</time>
      </trkpt>
      <trkpt lat="43.90264" lon="5.93551">
        <ele>552.4</ele>
        <time>2021-11-18T11:25:19Z</time>
      </trkpt>
      <trkpt lat="43.90264" lon="5.93535">
        <ele>552.1</ele>
        <time>2021-11-18T11:25:29Z</time>
      </trkpt>
      <trkpt lat="43.90266" lon="5.93521">
        <ele>551.9</ele>
        <time>2021-11-18T11:25:39Z</time>
      </trkpt>
      <trkpt lat="43.90269" lon="5.93506">
        <ele>551.8</ele>
        <time>2021-11-18T11:25:50Z</time>
      </trkpt>
      <trkpt lat="43.90268" lon="5.93491">
        <ele>551.4</ele>
        <time>2021-11-18T11:26:00Z</time>
      </trkpt>
      <trkpt lat="43.90267" lon="5.93476">
        <ele>551.1</ele>
        <time>2021-11-18T11:26:09Z</time>
      </trkpt>
      <trkpt lat="43.90262" lon="5.93462">
        <ele>550.5</ele>
        <time>2021-11-18T11:26:18Z</time>
      </trkpt>
      <trkpt lat="43.9026" lon="5.93448">
        <ele>549.8</ele>
        <time>2021-11-18T11:26:26Z</time>
      </trkpt>
      <trkpt lat="43.90257" lon="5.93433">
        <ele>549.2</ele>
        <time>2021-11-18T11:26:34Z</time>
      </trkpt>
      <trkpt lat="43.90256" lon="5.93419">
        <ele>548.7</ele>
        <time>2021-11-18T11:26:42Z</time>
      </trkpt>
      <trkpt lat="43.90253" lon="5.93404">
        <ele>548.7</ele>
        <time>2021-11-18T11:26:51Z</time>
      </trkpt>
      <trkpt lat="43.90251" lon="5.93391">
        <ele>548.9</ele>
        <time>2021-11-18T11:27:00Z</time>
      </trkpt>
      <trkpt lat="43.90249" lon="5.93376">
        <ele>549</ele>
        <time>2021-11-18T11:27:09Z</time>
      </trkpt>
      <trkpt lat="43.90247" lon="5.93361">
        <ele>549</ele>
        <time>2021-11-18T11:27:18Z</time>
      </trkpt>
      <trkpt lat="43.90244" lon="5.93348">
        <ele>549.4</ele>
        <time>2021-11-18T11:27:26Z</time>
      </trkpt>
      <trkpt lat="43.90243" lon="5.93336">
        <ele>549.7</ele>
        <time>2021-11-18T11:27:34Z</time>
      </trkpt>
      <trkpt lat="43.90241" lon="5.93323">
        <ele>549.8</ele>
        <time>2021-11-18T11:27:42Z</time>
      </trkpt>
      <trkpt lat="43.90237" lon="5.9331">
        <ele>549.9</ele>
        <time>2021-11-18T11:27:51Z</time>
      </trkpt>
      <trkpt lat="43.90235" lon="5.93295">
        <ele>549.8</ele>
        <time>2021-11-18T11:28:00Z</time>
      </trkpt>
      <trkpt lat="43.90229" lon="5.93286">
        <ele>549.8</ele>
        <time>2021-11-18T11:28:08Z</time>
      </trkpt>
      <trkpt lat="43.90223" lon="5.93276">
        <ele>550</ele>
        <time>2021-11-18T11:28:17Z</time>
      </trkpt>
      <trkpt lat="43.90216" lon="5.93266">
        <ele>550</ele>
        <time>2021-11-18T11:28:26Z</time>
      </trkpt>
      <trkpt lat="43.90209" lon="5.93256">
        <ele>550</ele>
        <time>2021-11-18T11:28:35Z</time>
      </trkpt>
      <trkpt lat="43.90203" lon="5.93245">
        <ele>549.9</ele>
        <time>2021-11-18T11:28:44Z</time>
      </trkpt>
      <trkpt lat="43.90196" lon="5.93235">
        <ele>550</ele>
        <time>2021-11-18T11:28:53Z</time>
      </trkpt>
      <trkpt lat="43.90189" lon="5.93225">
        <ele>550</ele>
        <time>2021-11-18T11:29:01Z</time>
      </trkpt>
      <trkpt lat="43.90183" lon="5.93216">
        <ele>550</ele>
        <time>2021-11-18T11:29:10Z</time>
      </trkpt>
      <trkpt lat="43.90177" lon="5.93203">
        <ele>550</ele>
        <time>2021-11-18T11:29:19Z</time>
      </trkpt>
      <trkpt lat="43.90171" lon="5.93192">
        <ele>549.9</ele>
        <time>2021-11-18T11:29:28Z</time>
      </trkpt>
      <trkpt lat="43.90165" lon="5.9318">
        <ele>549.5</ele>
        <time>2021-11-18T11:29:37Z</time>
      </trkpt>
      <trkpt lat="43.90158" lon="5.93172">
        <ele>549.2</ele>
        <time>2021-11-18T11:29:46Z</time>
      </trkpt>
      <trkpt lat="43.9015" lon="5.93163">
        <ele>548.9</ele>
        <time>2021-11-18T11:29:55Z</time>
      </trkpt>
      <trkpt lat="43.90143" lon="5.93151">
        <ele>548.4</ele>
        <time>2021-11-18T11:30:04Z</time>
      </trkpt>
      <trkpt lat="43.90135" lon="5.93141">
        <ele>548.2</ele>
        <time>2021-11-18T11:30:13Z</time>
      </trkpt>
      <trkpt lat="43.90128" lon="5.93131">
        <ele>547.7</ele>
        <time>2021-11-18T11:30:22Z</time>
      </trkpt>
      <trkpt lat="43.90122" lon="5.93121">
        <ele>547</ele>
        <time>2021-11-18T11:30:31Z</time>
      </trkpt>
      <trkpt lat="43.90116" lon="5.93107">
        <ele>546.5</ele>
        <time>2021-11-18T11:30:41Z</time>
      </trkpt>
      <trkpt lat="43.90112" lon="5.93093">
        <ele>546.3</ele>
        <time>2021-11-18T11:30:50Z</time>
      </trkpt>
      <trkpt lat="43.90108" lon="5.9308">
        <ele>546.1</ele>
        <time>2021-11-18T11:30:59Z</time>
      </trkpt>
      <trkpt lat="43.90104" lon="5.93065">
        <ele>545.9</ele>
        <time>2021-11-18T11:31:09Z</time>
      </trkpt>
      <trkpt lat="43.90104" lon="5.9305">
        <ele>545.2</ele>
        <time>2021-11-18T11:31:19Z</time>
      </trkpt>
      <trkpt lat="43.90107" lon="5.93036">
        <ele>544.4</ele>
        <time>2021-11-18T11:31:29Z</time>
      </trkpt>
      <trkpt lat="43.90109" lon="5.93021">
        <ele>543.5</ele>
        <time>2021-11-18T11:31:38Z</time>
      </trkpt>
      <trkpt lat="43.90112" lon="5.93007">
        <ele>542.5</ele>
        <time>2021-11-18T11:31:47Z</time>
      </trkpt>
      <trkpt lat="43.90116" lon="5.92995">
        <ele>541.5</ele>
        <time>2021-11-18T11:31:57Z</time>
      </trkpt>
      <trkpt lat="43.90121" lon="5.92981">
        <ele>540.8</ele>
        <time>2021-11-18T11:32:06Z</time>
      </trkpt>
      <trkpt lat="43.90125" lon="5.92969">
        <ele>540.5</ele>
        <time>2021-11-18T11:32:17Z</time>
      </trkpt>
      <trkpt lat="43.90129" lon="5.92957">
        <ele>540.5</ele>
        <time>2021-11-18T11:32:26Z</time>
      </trkpt>
      <trkpt lat="43.9013" lon="5.92943">
        <ele>540.4</ele>
        <time>2021-11-18T11:32:34Z</time>
      </trkpt>
      <trkpt lat="43.90131" lon="5.92928">
        <ele>540.3</ele>
        <time>2021-11-18T11:32:44Z</time>
      </trkpt>
      <trkpt lat="43.90131" lon="5.92915">
        <ele>540.1</ele>
        <time>2021-11-18T11:32:53Z</time>
      </trkpt>
      <trkpt lat="43.90129" lon="5.929">
        <ele>540.1</ele>
        <time>2021-11-18T11:33:04Z</time>
      </trkpt>
      <trkpt lat="43.90123" lon="5.92884">
        <ele>540</ele>
        <time>2021-11-18T11:33:16Z</time>
      </trkpt>
      <trkpt lat="43.90116" lon="5.92869">
        <ele>540.1</ele>
        <time>2021-11-18T11:33:31Z</time>
      </trkpt>
      <trkpt lat="43.90109" lon="5.92854">
        <ele>540.1</ele>
        <time>2021-11-18T11:33:43Z</time>
      </trkpt>
      <trkpt lat="43.90104" lon="5.92845">
        <ele>540.2</ele>
        <time>2021-11-18T11:34:10Z</time>
      </trkpt>
      <trkpt lat="43.90103" lon="5.92839">
        <ele>540.4</ele>
        <time>2021-11-18T11:34:27Z</time>
      </trkpt>
      <trkpt lat="43.901" lon="5.92824">
        <ele>540.7</ele>
        <time>2021-11-18T11:34:44Z</time>
      </trkpt>
      <trkpt lat="43.90096" lon="5.92811">
        <ele>540.9</ele>
        <time>2021-11-18T11:34:58Z</time>
      </trkpt>
      <trkpt lat="43.90092" lon="5.928">
        <ele>540.9</ele>
        <time>2021-11-18T11:35:15Z</time>
      </trkpt>
      <trkpt lat="43.90093" lon="5.92798">
        <ele>540.8</ele>
        <time>2021-11-18T11:37:21Z</time>
      </trkpt>
      <trkpt lat="43.9009" lon="5.92787">
        <ele>540.7</ele>
        <time>2021-11-18T11:37:58Z</time>
      </trkpt>
      <trkpt lat="43.90086" lon="5.92775">
        <ele>540.7</ele>
        <time>2021-11-18T11:38:08Z</time>
      </trkpt>
      <trkpt lat="43.90083" lon="5.92762">
        <ele>540.4</ele>
        <time>2021-11-18T11:38:17Z</time>
      </trkpt>
      <trkpt lat="43.9008" lon="5.9275">
        <ele>540.3</ele>
        <time>2021-11-18T11:38:26Z</time>
      </trkpt>
      <trkpt lat="43.90079" lon="5.92735">
        <ele>540.4</ele>
        <time>2021-11-18T11:38:35Z</time>
      </trkpt>
      <trkpt lat="43.9008" lon="5.92721">
        <ele>540.4</ele>
        <time>2021-11-18T11:38:45Z</time>
      </trkpt>
      <trkpt lat="43.90079" lon="5.92707">
        <ele>540.4</ele>
        <time>2021-11-18T11:38:54Z</time>
      </trkpt>
      <trkpt lat="43.90078" lon="5.92694">
        <ele>540.5</ele>
        <time>2021-11-18T11:39:02Z</time>
      </trkpt>
      <trkpt lat="43.90079" lon="5.92681">
        <ele>540.9</ele>
        <time>2021-11-18T11:39:10Z</time>
      </trkpt>
      <trkpt lat="43.90081" lon="5.92669">
        <ele>541.1</ele>
        <time>2021-11-18T11:39:18Z</time>
      </trkpt>
      <trkpt lat="43.9008" lon="5.92656">
        <ele>541.6</ele>
        <time>2021-11-18T11:39:27Z</time>
      </trkpt>
      <trkpt lat="43.9008" lon="5.92643">
        <ele>542</ele>
        <time>2021-11-18T11:39:35Z</time>
      </trkpt>
      <trkpt lat="43.90078" lon="5.92632">
        <ele>541.9</ele>
        <time>2021-11-18T11:39:43Z</time>
      </trkpt>
      <trkpt lat="43.90076" lon="5.9262">
        <ele>541.6</ele>
        <time>2021-11-18T11:39:51Z</time>
      </trkpt>
      <trkpt lat="43.90074" lon="5.92608">
        <ele>541.3</ele>
        <time>2021-11-18T11:39:59Z</time>
      </trkpt>
      <trkpt lat="43.90071" lon="5.92595">
        <ele>541.2</ele>
        <time>2021-11-18T11:40:07Z</time>
      </trkpt>
      <trkpt lat="43.90069" lon="5.92585">
        <ele>541</ele>
        <time>2021-11-18T11:40:15Z</time>
      </trkpt>
      <trkpt lat="43.90066" lon="5.92574">
        <ele>540.9</ele>
        <time>2021-11-18T11:40:23Z</time>
      </trkpt>
      <trkpt lat="43.90064" lon="5.92562">
        <ele>540.8</ele>
        <time>2021-11-18T11:40:31Z</time>
      </trkpt>
      <trkpt lat="43.90063" lon="5.92551">
        <ele>540.7</ele>
        <time>2021-11-18T11:40:39Z</time>
      </trkpt>
      <trkpt lat="43.90062" lon="5.92536">
        <ele>540.6</ele>
        <time>2021-11-18T11:40:48Z</time>
      </trkpt>
      <trkpt lat="43.90062" lon="5.92523">
        <ele>540.5</ele>
        <time>2021-11-18T11:40:57Z</time>
      </trkpt>
      <trkpt lat="43.90062" lon="5.92508">
        <ele>540.4</ele>
        <time>2021-11-18T11:41:06Z</time>
      </trkpt>
      <trkpt lat="43.90063" lon="5.92491">
        <ele>540.1</ele>
        <time>2021-11-18T11:41:15Z</time>
      </trkpt>
      <trkpt lat="43.90064" lon="5.92474">
        <ele>540.1</ele>
        <time>2021-11-18T11:41:24Z</time>
      </trkpt>
      <trkpt lat="43.90066" lon="5.92459">
        <ele>540.1</ele>
        <time>2021-11-18T11:41:32Z</time>
      </trkpt>
      <trkpt lat="43.90069" lon="5.92448">
        <ele>540</ele>
        <time>2021-11-18T11:41:40Z</time>
      </trkpt>
      <trkpt lat="43.90074" lon="5.92437">
        <ele>539.8</ele>
        <time>2021-11-18T11:41:48Z</time>
      </trkpt>
      <trkpt lat="43.9008" lon="5.92429">
        <ele>539.3</ele>
        <time>2021-11-18T11:41:56Z</time>
      </trkpt>
      <trkpt lat="43.90084" lon="5.92417">
        <ele>538.9</ele>
        <time>2021-11-18T11:42:05Z</time>
      </trkpt>
      <trkpt lat="43.90088" lon="5.92408">
        <ele>538.1</ele>
        <time>2021-11-18T11:42:14Z</time>
      </trkpt>
      <trkpt lat="43.90091" lon="5.92394">
        <ele>537.1</ele>
        <time>2021-11-18T11:42:22Z</time>
      </trkpt>
      <trkpt lat="43.90093" lon="5.92382">
        <ele>536.7</ele>
        <time>2021-11-18T11:42:30Z</time>
      </trkpt>
      <trkpt lat="43.90094" lon="5.9237">
        <ele>536.6</ele>
        <time>2021-11-18T11:42:38Z</time>
      </trkpt>
      <trkpt lat="43.90097" lon="5.92357">
        <ele>536.4</ele>
        <time>2021-11-18T11:42:46Z</time>
      </trkpt>
      <trkpt lat="43.90097" lon="5.92344">
        <ele>537.3</ele>
        <time>2021-11-18T11:42:55Z</time>
      </trkpt>
      <trkpt lat="43.90099" lon="5.9233">
        <ele>537.9</ele>
        <time>2021-11-18T11:43:04Z</time>
      </trkpt>
      <trkpt lat="43.90097" lon="5.92315">
        <ele>538.6</ele>
        <time>2021-11-18T11:43:13Z</time>
      </trkpt>
      <trkpt lat="43.90096" lon="5.92307">
        <ele>539.1</ele>
        <time>2021-11-18T11:43:24Z</time>
      </trkpt>
      <trkpt lat="43.90091" lon="5.92297">
        <ele>539.1</ele>
        <time>2021-11-18T11:43:34Z</time>
      </trkpt>
      <trkpt lat="43.90085" lon="5.92286">
        <ele>539.6</ele>
        <time>2021-11-18T11:43:43Z</time>
      </trkpt>
      <trkpt lat="43.9008" lon="5.92276">
        <ele>540.2</ele>
        <time>2021-11-18T11:43:52Z</time>
      </trkpt>
      <trkpt lat="43.90074" lon="5.92265">
        <ele>539.8</ele>
        <time>2021-11-18T11:44:01Z</time>
      </trkpt>
      <trkpt lat="43.90069" lon="5.92255">
        <ele>539.6</ele>
        <time>2021-11-18T11:44:10Z</time>
      </trkpt>
      <trkpt lat="43.90062" lon="5.92246">
        <ele>539.6</ele>
        <time>2021-11-18T11:44:19Z</time>
      </trkpt>
      <trkpt lat="43.90056" lon="5.92236">
        <ele>539.5</ele>
        <time>2021-11-18T11:44:28Z</time>
      </trkpt>
      <trkpt lat="43.90052" lon="5.92225">
        <ele>538.6</ele>
        <time>2021-11-18T11:44:36Z</time>
      </trkpt>
      <trkpt lat="43.90048" lon="5.92213">
        <ele>537.4</ele>
        <time>2021-11-18T11:44:44Z</time>
      </trkpt>
      <trkpt lat="43.90043" lon="5.92202">
        <ele>536.7</ele>
        <time>2021-11-18T11:44:53Z</time>
      </trkpt>
      <trkpt lat="43.90037" lon="5.9219">
        <ele>536.6</ele>
        <time>2021-11-18T11:45:02Z</time>
      </trkpt>
      <trkpt lat="43.90033" lon="5.92176">
        <ele>536.4</ele>
        <time>2021-11-18T11:45:10Z</time>
      </trkpt>
      <trkpt lat="43.90027" lon="5.92165">
        <ele>537.3</ele>
        <time>2021-11-18T11:45:19Z</time>
      </trkpt>
      <trkpt lat="43.90024" lon="5.92152">
        <ele>538.5</ele>
        <time>2021-11-18T11:45:28Z</time>
      </trkpt>
      <trkpt lat="43.90021" lon="5.92139">
        <ele>539.7</ele>
        <time>2021-11-18T11:45:37Z</time>
      </trkpt>
      <trkpt lat="43.90019" lon="5.92124">
        <ele>539.6</ele>
        <time>2021-11-18T11:45:48Z</time>
      </trkpt>
      <trkpt lat="43.90013" lon="5.92116">
        <ele>539.7</ele>
        <time>2021-11-18T11:45:58Z</time>
      </trkpt>
      <trkpt lat="43.90005" lon="5.9211">
        <ele>539.7</ele>
        <time>2021-11-18T11:46:08Z</time>
      </trkpt>
      <trkpt lat="43.89995" lon="5.92106">
        <ele>539.1</ele>
        <time>2021-11-18T11:46:18Z</time>
      </trkpt>
      <trkpt lat="43.89991" lon="5.9211">
        <ele>539.4</ele>
        <time>2021-11-18T11:54:11Z</time>
      </trkpt>
      <trkpt lat="43.89971" lon="5.92123">
        <ele>539.8</ele>
        <time>2021-11-18T12:35:07Z</time>
      </trkpt>
      <trkpt lat="43.89962" lon="5.92126">
        <ele>539</ele>
        <time>2021-11-18T12:35:17Z</time>
      </trkpt>
      <trkpt lat="43.89954" lon="5.92128">
        <ele>538.4</ele>
        <time>2021-11-18T12:35:33Z</time>
      </trkpt>
      <trkpt lat="43.89944" lon="5.92131">
        <ele>538.3</ele>
        <time>2021-11-18T12:35:43Z</time>
      </trkpt>
      <trkpt lat="43.89935" lon="5.92135">
        <ele>538.7</ele>
        <time>2021-11-18T12:35:53Z</time>
      </trkpt>
      <trkpt lat="43.89925" lon="5.92138">
        <ele>539</ele>
        <time>2021-11-18T12:36:02Z</time>
      </trkpt>
      <trkpt lat="43.89917" lon="5.9214">
        <ele>539.1</ele>
        <time>2021-11-18T12:36:11Z</time>
      </trkpt>
      <trkpt lat="43.89908" lon="5.92143">
        <ele>538.7</ele>
        <time>2021-11-18T12:36:19Z</time>
      </trkpt>
      <trkpt lat="43.89899" lon="5.92145">
        <ele>538.1</ele>
        <time>2021-11-18T12:36:29Z</time>
      </trkpt>
      <trkpt lat="43.89888" lon="5.92147">
        <ele>537.5</ele>
        <time>2021-11-18T12:36:41Z</time>
      </trkpt>
      <trkpt lat="43.89878" lon="5.92153">
        <ele>537</ele>
        <time>2021-11-18T12:36:54Z</time>
      </trkpt>
      <trkpt lat="43.89865" lon="5.92155">
        <ele>536.1</ele>
        <time>2021-11-18T12:37:08Z</time>
      </trkpt>
      <trkpt lat="43.89854" lon="5.92157">
        <ele>535.5</ele>
        <time>2021-11-18T12:37:20Z</time>
      </trkpt>
      <trkpt lat="43.89844" lon="5.92158">
        <ele>534.8</ele>
        <time>2021-11-18T12:37:31Z</time>
      </trkpt>
      <trkpt lat="43.89831" lon="5.92157">
        <ele>533.8</ele>
        <time>2021-11-18T12:37:43Z</time>
      </trkpt>
      <trkpt lat="43.89819" lon="5.92158">
        <ele>533</ele>
        <time>2021-11-18T12:37:54Z</time>
      </trkpt>
      <trkpt lat="43.89809" lon="5.92158">
        <ele>532.4</ele>
        <time>2021-11-18T12:38:04Z</time>
      </trkpt>
      <trkpt lat="43.89799" lon="5.92157">
        <ele>531.2</ele>
        <time>2021-11-18T12:38:17Z</time>
      </trkpt>
      <trkpt lat="43.89788" lon="5.92157">
        <ele>530.1</ele>
        <time>2021-11-18T12:38:27Z</time>
      </trkpt>
      <trkpt lat="43.89779" lon="5.92154">
        <ele>528.8</ele>
        <time>2021-11-18T12:38:37Z</time>
      </trkpt>
      <trkpt lat="43.89769" lon="5.92154">
        <ele>527.8</ele>
        <time>2021-11-18T12:38:47Z</time>
      </trkpt>
      <trkpt lat="43.89757" lon="5.92155">
        <ele>526.8</ele>
        <time>2021-11-18T12:38:57Z</time>
      </trkpt>
      <trkpt lat="43.89747" lon="5.92156">
        <ele>526</ele>
        <time>2021-11-18T12:39:07Z</time>
      </trkpt>
      <trkpt lat="43.89738" lon="5.92152">
        <ele>525.1</ele>
        <time>2021-11-18T12:39:17Z</time>
      </trkpt>
      <trkpt lat="43.89728" lon="5.92148">
        <ele>524.3</ele>
        <time>2021-11-18T12:39:28Z</time>
      </trkpt>
      <trkpt lat="43.89716" lon="5.92148">
        <ele>523.3</ele>
        <time>2021-11-18T12:39:43Z</time>
      </trkpt>
      <trkpt lat="43.89707" lon="5.92142">
        <ele>522.3</ele>
        <time>2021-11-18T12:39:54Z</time>
      </trkpt>
      <trkpt lat="43.89698" lon="5.92136">
        <ele>521</ele>
        <time>2021-11-18T12:40:04Z</time>
      </trkpt>
      <trkpt lat="43.8969" lon="5.92129">
        <ele>518.7</ele>
        <time>2021-11-18T12:40:15Z</time>
      </trkpt>
      <trkpt lat="43.89682" lon="5.92121">
        <ele>516.6</ele>
        <time>2021-11-18T12:40:26Z</time>
      </trkpt>
      <trkpt lat="43.89671" lon="5.92113">
        <ele>515.3</ele>
        <time>2021-11-18T12:40:38Z</time>
      </trkpt>
      <trkpt lat="43.89662" lon="5.92105">
        <ele>512.5</ele>
        <time>2021-11-18T12:40:48Z</time>
      </trkpt>
      <trkpt lat="43.89655" lon="5.92096">
        <ele>510</ele>
        <time>2021-11-18T12:40:58Z</time>
      </trkpt>
      <trkpt lat="43.89647" lon="5.92089">
        <ele>509.3</ele>
        <time>2021-11-18T12:41:09Z</time>
      </trkpt>
      <trkpt lat="43.8964" lon="5.92082">
        <ele>509.5</ele>
        <time>2021-11-18T12:41:20Z</time>
      </trkpt>
      <trkpt lat="43.89631" lon="5.92074">
        <ele>505.5</ele>
        <time>2021-11-18T12:41:31Z</time>
      </trkpt>
      <trkpt lat="43.89623" lon="5.92068">
        <ele>503.6</ele>
        <time>2021-11-18T12:41:42Z</time>
      </trkpt>
      <trkpt lat="43.89614" lon="5.92059">
        <ele>503.5</ele>
        <time>2021-11-18T12:41:54Z</time>
      </trkpt>
      <trkpt lat="43.89607" lon="5.9205">
        <ele>501.2</ele>
        <time>2021-11-18T12:42:06Z</time>
      </trkpt>
      <trkpt lat="43.896" lon="5.92043">
        <ele>497.9</ele>
        <time>2021-11-18T12:42:18Z</time>
      </trkpt>
      <trkpt lat="43.8959" lon="5.92038">
        <ele>496.7</ele>
        <time>2021-11-18T12:42:30Z</time>
      </trkpt>
      <trkpt lat="43.89582" lon="5.92032">
        <ele>496.3</ele>
        <time>2021-11-18T12:42:42Z</time>
      </trkpt>
      <trkpt lat="43.89572" lon="5.92028">
        <ele>496.4</ele>
        <time>2021-11-18T12:42:53Z</time>
      </trkpt>
      <trkpt lat="43.89564" lon="5.92024">
        <ele>495.3</ele>
        <time>2021-11-18T12:43:03Z</time>
      </trkpt>
      <trkpt lat="43.89555" lon="5.92018">
        <ele>494.4</ele>
        <time>2021-11-18T12:43:14Z</time>
      </trkpt>
      <trkpt lat="43.89546" lon="5.92015">
        <ele>494.7</ele>
        <time>2021-11-18T12:43:26Z</time>
      </trkpt>
      <trkpt lat="43.89536" lon="5.92013">
        <ele>496.1</ele>
        <time>2021-11-18T12:43:39Z</time>
      </trkpt>
      <trkpt lat="43.89527" lon="5.92008">
        <ele>497.9</ele>
        <time>2021-11-18T12:43:52Z</time>
      </trkpt>
      <trkpt lat="43.89517" lon="5.92005">
        <ele>499.9</ele>
        <time>2021-11-18T12:44:04Z</time>
      </trkpt>
      <trkpt lat="43.89514" lon="5.92007">
        <ele>500.1</ele>
        <time>2021-11-18T12:44:48Z</time>
      </trkpt>
      <trkpt lat="43.89513" lon="5.92002">
        <ele>501.4</ele>
        <time>2021-11-18T12:45:35Z</time>
      </trkpt>
      <trkpt lat="43.89501" lon="5.91996">
        <ele>503.7</ele>
        <time>2021-11-18T12:45:48Z</time>
      </trkpt>
      <trkpt lat="43.89491" lon="5.9199">
        <ele>503</ele>
        <time>2021-11-18T12:45:58Z</time>
      </trkpt>
      <trkpt lat="43.89482" lon="5.91982">
        <ele>503.5</ele>
        <time>2021-11-18T12:46:09Z</time>
      </trkpt>
      <trkpt lat="43.89475" lon="5.91971">
        <ele>506</ele>
        <time>2021-11-18T12:46:23Z</time>
      </trkpt>
      <trkpt lat="43.89467" lon="5.91965">
        <ele>504.7</ele>
        <time>2021-11-18T12:46:33Z</time>
      </trkpt>
      <trkpt lat="43.89458" lon="5.91959">
        <ele>502.8</ele>
        <time>2021-11-18T12:46:44Z</time>
      </trkpt>
      <trkpt lat="43.8945" lon="5.91954">
        <ele>501.5</ele>
        <time>2021-11-18T12:46:58Z</time>
      </trkpt>
      <trkpt lat="43.89441" lon="5.91948">
        <ele>499.8</ele>
        <time>2021-11-18T12:47:13Z</time>
      </trkpt>
      <trkpt lat="43.8943" lon="5.91946">
        <ele>497.5</ele>
        <time>2021-11-18T12:47:27Z</time>
      </trkpt>
      <trkpt lat="43.89426" lon="5.91934">
        <ele>494</ele>
        <time>2021-11-18T12:47:43Z</time>
      </trkpt>
      <trkpt lat="43.89424" lon="5.9192">
        <ele>490.2</ele>
        <time>2021-11-18T12:47:58Z</time>
      </trkpt>
      <trkpt lat="43.8942" lon="5.9191">
        <ele>486.6</ele>
        <time>2021-11-18T12:48:17Z</time>
      </trkpt>
      <trkpt lat="43.89412" lon="5.91902">
        <ele>483</ele>
        <time>2021-11-18T12:48:37Z</time>
      </trkpt>
      <trkpt lat="43.89408" lon="5.9189">
        <ele>479.2</ele>
        <time>2021-11-18T12:49:00Z</time>
      </trkpt>
      <trkpt lat="43.89397" lon="5.91882">
        <ele>475.1</ele>
        <time>2021-11-18T12:49:16Z</time>
      </trkpt>
      <trkpt lat="43.89388" lon="5.91876">
        <ele>472.7</ele>
        <time>2021-11-18T12:49:30Z</time>
      </trkpt>
      <trkpt lat="43.89378" lon="5.91872">
        <ele>470.6</ele>
        <time>2021-11-18T12:49:43Z</time>
      </trkpt>
      <trkpt lat="43.89368" lon="5.91867">
        <ele>468.6</ele>
        <time>2021-11-18T12:49:56Z</time>
      </trkpt>
      <trkpt lat="43.8936" lon="5.91863">
        <ele>467.1</ele>
        <time>2021-11-18T12:50:09Z</time>
      </trkpt>
      <trkpt lat="43.89351" lon="5.91859">
        <ele>464.7</ele>
        <time>2021-11-18T12:50:22Z</time>
      </trkpt>
      <trkpt lat="43.89342" lon="5.91847">
        <ele>460.7</ele>
        <time>2021-11-18T12:52:36Z</time>
      </trkpt>
      <trkpt lat="43.89331" lon="5.91844">
        <ele>459.4</ele>
        <time>2021-11-18T12:52:54Z</time>
      </trkpt>
      <trkpt lat="43.8932" lon="5.91843">
        <ele>458.3</ele>
        <time>2021-11-18T12:53:07Z</time>
      </trkpt>
      <trkpt lat="43.89312" lon="5.91841">
        <ele>457.3</ele>
        <time>2021-11-18T12:53:24Z</time>
      </trkpt>
      <trkpt lat="43.89302" lon="5.91837">
        <ele>455.8</ele>
        <time>2021-11-18T12:53:37Z</time>
      </trkpt>
      <trkpt lat="43.89294" lon="5.91833">
        <ele>454</ele>
        <time>2021-11-18T12:54:02Z</time>
      </trkpt>
      <trkpt lat="43.89286" lon="5.91828">
        <ele>451.5</ele>
        <time>2021-11-18T12:54:15Z</time>
      </trkpt>
      <trkpt lat="43.89277" lon="5.91825">
        <ele>449.7</ele>
        <time>2021-11-18T12:54:27Z</time>
      </trkpt>
      <trkpt lat="43.89269" lon="5.9182">
        <ele>448.2</ele>
        <time>2021-11-18T12:54:38Z</time>
      </trkpt>
      <trkpt lat="43.89259" lon="5.91814">
        <ele>446.2</ele>
        <time>2021-11-18T12:54:48Z</time>
      </trkpt>
      <trkpt lat="43.89251" lon="5.91812">
        <ele>445</ele>
        <time>2021-11-18T12:54:58Z</time>
      </trkpt>
      <trkpt lat="43.89242" lon="5.91809">
        <ele>443.4</ele>
        <time>2021-11-18T12:55:09Z</time>
      </trkpt>
      <trkpt lat="43.89233" lon="5.91812">
        <ele>442.7</ele>
        <time>2021-11-18T12:55:32Z</time>
      </trkpt>
      <trkpt lat="43.89225" lon="5.91818">
        <ele>443</ele>
        <time>2021-11-18T12:55:41Z</time>
      </trkpt>
      <trkpt lat="43.89217" lon="5.91821">
        <ele>442.7</ele>
        <time>2021-11-18T12:55:50Z</time>
      </trkpt>
      <trkpt lat="43.89207" lon="5.91824">
        <ele>442.6</ele>
        <time>2021-11-18T12:56:00Z</time>
      </trkpt>
      <trkpt lat="43.89197" lon="5.9183">
        <ele>443.3</ele>
        <time>2021-11-18T12:56:14Z</time>
      </trkpt>
      <trkpt lat="43.89186" lon="5.9183">
        <ele>441.4</ele>
        <time>2021-11-18T12:56:25Z</time>
      </trkpt>
      <trkpt lat="43.89175" lon="5.91833">
        <ele>439.8</ele>
        <time>2021-11-18T12:56:37Z</time>
      </trkpt>
      <trkpt lat="43.89166" lon="5.91827">
        <ele>436.8</ele>
        <time>2021-11-18T12:56:49Z</time>
      </trkpt>
      <trkpt lat="43.89172" lon="5.91815">
        <ele>435.6</ele>
        <time>2021-11-18T12:56:58Z</time>
      </trkpt>
      <trkpt lat="43.8918" lon="5.91807">
        <ele>434.8</ele>
        <time>2021-11-18T12:57:07Z</time>
      </trkpt>
      <trkpt lat="43.89189" lon="5.91802">
        <ele>435.2</ele>
        <time>2021-11-18T12:57:16Z</time>
      </trkpt>
      <trkpt lat="43.892" lon="5.91797">
        <ele>436.1</ele>
        <time>2021-11-18T12:57:26Z</time>
      </trkpt>
      <trkpt lat="43.89208" lon="5.9179">
        <ele>435.9</ele>
        <time>2021-11-18T12:57:36Z</time>
      </trkpt>
      <trkpt lat="43.89213" lon="5.9178">
        <ele>434.9</ele>
        <time>2021-11-18T12:57:45Z</time>
      </trkpt>
      <trkpt lat="43.89211" lon="5.91768">
        <ele>430.7</ele>
        <time>2021-11-18T12:57:54Z</time>
      </trkpt>
      <trkpt lat="43.89204" lon="5.91762">
        <ele>428.6</ele>
        <time>2021-11-18T12:58:45Z</time>
      </trkpt>
      <trkpt lat="43.89195" lon="5.91761">
        <ele>428.6</ele>
        <time>2021-11-18T12:58:55Z</time>
      </trkpt>
      <trkpt lat="43.89184" lon="5.91758">
        <ele>427.6</ele>
        <time>2021-11-18T12:59:05Z</time>
      </trkpt>
      <trkpt lat="43.89174" lon="5.91753">
        <ele>426.5</ele>
        <time>2021-11-18T12:59:15Z</time>
      </trkpt>
      <trkpt lat="43.89165" lon="5.91749">
        <ele>425.5</ele>
        <time>2021-11-18T12:59:25Z</time>
      </trkpt>
      <trkpt lat="43.89156" lon="5.91745">
        <ele>424.3</ele>
        <time>2021-11-18T12:59:35Z</time>
      </trkpt>
      <trkpt lat="43.89146" lon="5.91741">
        <ele>423</ele>
        <time>2021-11-18T12:59:46Z</time>
      </trkpt>
      <trkpt lat="43.89137" lon="5.91737">
        <ele>421.9</ele>
        <time>2021-11-18T12:59:56Z</time>
      </trkpt>
      <trkpt lat="43.89128" lon="5.9173">
        <ele>419.9</ele>
        <time>2021-11-18T13:00:06Z</time>
      </trkpt>
      <trkpt lat="43.89119" lon="5.91727">
        <ele>419.2</ele>
        <time>2021-11-18T13:00:15Z</time>
      </trkpt>
      <trkpt lat="43.89107" lon="5.91724">
        <ele>419.1</ele>
        <time>2021-11-18T13:00:25Z</time>
      </trkpt>
      <trkpt lat="43.89098" lon="5.91719">
        <ele>416.9</ele>
        <time>2021-11-18T13:00:34Z</time>
      </trkpt>
      <trkpt lat="43.8909" lon="5.91714">
        <ele>414.9</ele>
        <time>2021-11-18T13:00:43Z</time>
      </trkpt>
      <trkpt lat="43.89082" lon="5.91711">
        <ele>414.1</ele>
        <time>2021-11-18T13:00:52Z</time>
      </trkpt>
      <trkpt lat="43.89072" lon="5.91707">
        <ele>413.3</ele>
        <time>2021-11-18T13:01:02Z</time>
      </trkpt>
      <trkpt lat="43.89063" lon="5.91703">
        <ele>412.3</ele>
        <time>2021-11-18T13:01:13Z</time>
      </trkpt>
      <trkpt lat="43.89055" lon="5.91698">
        <ele>410.3</ele>
        <time>2021-11-18T13:01:23Z</time>
      </trkpt>
      <trkpt lat="43.89047" lon="5.91693">
        <ele>408.1</ele>
        <time>2021-11-18T13:01:33Z</time>
      </trkpt>
      <trkpt lat="43.89035" lon="5.91691">
        <ele>406.9</ele>
        <time>2021-11-18T13:01:55Z</time>
      </trkpt>
      <trkpt lat="43.89027" lon="5.91689">
        <ele>405.7</ele>
        <time>2021-11-18T13:02:05Z</time>
      </trkpt>
      <trkpt lat="43.89017" lon="5.91685">
        <ele>403.4</ele>
        <time>2021-11-18T13:02:16Z</time>
      </trkpt>
      <trkpt lat="43.89017" lon="5.91683">
        <ele>402.7</ele>
        <time>2021-11-18T13:02:46Z</time>
      </trkpt>
      <trkpt lat="43.89006" lon="5.91684">
        <ele>402</ele>
        <time>2021-11-18T13:02:55Z</time>
      </trkpt>
      <trkpt lat="43.8899" lon="5.91679">
        <ele>398.9</ele>
        <time>2021-11-18T13:03:43Z</time>
      </trkpt>
      <trkpt lat="43.88978" lon="5.91678">
        <ele>397.6</ele>
        <time>2021-11-18T13:03:52Z</time>
      </trkpt>
      <trkpt lat="43.88967" lon="5.91677">
        <ele>396.2</ele>
        <time>2021-11-18T13:04:03Z</time>
      </trkpt>
      <trkpt lat="43.88957" lon="5.91676">
        <ele>394.7</ele>
        <time>2021-11-18T13:04:12Z</time>
      </trkpt>
      <trkpt lat="43.88946" lon="5.9168">
        <ele>393.6</ele>
        <time>2021-11-18T13:04:21Z</time>
      </trkpt>
      <trkpt lat="43.88936" lon="5.91682">
        <ele>392.8</ele>
        <time>2021-11-18T13:04:30Z</time>
      </trkpt>
      <trkpt lat="43.88932" lon="5.91675">
        <ele>391.8</ele>
        <time>2021-11-18T13:04:42Z</time>
      </trkpt>
      <trkpt lat="43.88929" lon="5.91653">
        <ele>387.9</ele>
        <time>2021-11-18T13:04:57Z</time>
      </trkpt>
      <trkpt lat="43.88916" lon="5.91661">
        <ele>389</ele>
        <time>2021-11-18T13:09:01Z</time>
      </trkpt>
      <trkpt lat="43.88914" lon="5.91674">
        <ele>389.8</ele>
        <time>2021-11-18T13:09:13Z</time>
      </trkpt>
      <trkpt lat="43.88913" lon="5.91689">
        <ele>390.3</ele>
        <time>2021-11-18T13:09:23Z</time>
      </trkpt>
      <trkpt lat="43.88897" lon="5.91683">
        <ele>387.2</ele>
        <time>2021-11-18T13:13:32Z</time>
      </trkpt>
      <trkpt lat="43.88886" lon="5.91682">
        <ele>385.3</ele>
        <time>2021-11-18T13:13:45Z</time>
      </trkpt>
      <trkpt lat="43.88875" lon="5.91677">
        <ele>383.5</ele>
        <time>2021-11-18T13:13:57Z</time>
      </trkpt>
      <trkpt lat="43.88867" lon="5.91674">
        <ele>382.2</ele>
        <time>2021-11-18T13:14:10Z</time>
      </trkpt>
      <trkpt lat="43.88858" lon="5.91668">
        <ele>380.9</ele>
        <time>2021-11-18T13:14:21Z</time>
      </trkpt>
      <trkpt lat="43.88849" lon="5.91666">
        <ele>380</ele>
        <time>2021-11-18T13:14:37Z</time>
      </trkpt>
      <trkpt lat="43.88839" lon="5.9166">
        <ele>378.2</ele>
        <time>2021-11-18T13:14:59Z</time>
      </trkpt>
      <trkpt lat="43.8883" lon="5.91653">
        <ele>377</ele>
        <time>2021-11-18T13:15:10Z</time>
      </trkpt>
      <trkpt lat="43.8882" lon="5.91648">
        <ele>376</ele>
        <time>2021-11-18T13:15:19Z</time>
      </trkpt>
      <trkpt lat="43.88811" lon="5.91642">
        <ele>375.3</ele>
        <time>2021-11-18T13:15:28Z</time>
      </trkpt>
      <trkpt lat="43.88801" lon="5.91637">
        <ele>374.1</ele>
        <time>2021-11-18T13:15:37Z</time>
      </trkpt>
      <trkpt lat="43.88793" lon="5.91634">
        <ele>372.6</ele>
        <time>2021-11-18T13:15:46Z</time>
      </trkpt>
      <trkpt lat="43.88783" lon="5.91629">
        <ele>371</ele>
        <time>2021-11-18T13:15:57Z</time>
      </trkpt>
      <trkpt lat="43.88773" lon="5.91627">
        <ele>370.1</ele>
        <time>2021-11-18T13:16:07Z</time>
      </trkpt>
      <trkpt lat="43.88764" lon="5.91623">
        <ele>369.3</ele>
        <time>2021-11-18T13:16:17Z</time>
      </trkpt>
      <trkpt lat="43.88753" lon="5.91621">
        <ele>368.8</ele>
        <time>2021-11-18T13:16:27Z</time>
      </trkpt>
      <trkpt lat="43.88744" lon="5.91616">
        <ele>367.9</ele>
        <time>2021-11-18T13:16:58Z</time>
      </trkpt>
      <trkpt lat="43.88734" lon="5.91611">
        <ele>366.9</ele>
        <time>2021-11-18T13:17:08Z</time>
      </trkpt>
      <trkpt lat="43.88724" lon="5.91609">
        <ele>365.8</ele>
        <time>2021-11-18T13:17:18Z</time>
      </trkpt>
      <trkpt lat="43.88714" lon="5.91604">
        <ele>364.4</ele>
        <time>2021-11-18T13:17:29Z</time>
      </trkpt>
      <trkpt lat="43.88702" lon="5.91602">
        <ele>363.2</ele>
        <time>2021-11-18T13:17:39Z</time>
      </trkpt>
      <trkpt lat="43.88692" lon="5.916">
        <ele>362.2</ele>
        <time>2021-11-18T13:17:49Z</time>
      </trkpt>
      <trkpt lat="43.88683" lon="5.91596">
        <ele>361.5</ele>
        <time>2021-11-18T13:17:58Z</time>
      </trkpt>
      <trkpt lat="43.88673" lon="5.91593">
        <ele>360.9</ele>
        <time>2021-11-18T13:18:07Z</time>
      </trkpt>
      <trkpt lat="43.88663" lon="5.91588">
        <ele>360.3</ele>
        <time>2021-11-18T13:18:16Z</time>
      </trkpt>
      <trkpt lat="43.88653" lon="5.91581">
        <ele>359.7</ele>
        <time>2021-11-18T13:18:27Z</time>
      </trkpt>
      <trkpt lat="43.88644" lon="5.91575">
        <ele>358.7</ele>
        <time>2021-11-18T13:18:36Z</time>
      </trkpt>
      <trkpt lat="43.88632" lon="5.91571">
        <ele>357.5</ele>
        <time>2021-11-18T13:18:47Z</time>
      </trkpt>
      <trkpt lat="43.88623" lon="5.91564">
        <ele>355.8</ele>
        <time>2021-11-18T13:19:17Z</time>
      </trkpt>
      <trkpt lat="43.88618" lon="5.91568">
        <ele>355.6</ele>
        <time>2021-11-18T13:19:50Z</time>
      </trkpt>
      <trkpt lat="43.88611" lon="5.91559">
        <ele>354.2</ele>
        <time>2021-11-18T13:20:00Z</time>
      </trkpt>
      <trkpt lat="43.88616" lon="5.9155">
        <ele>353.1</ele>
        <time>2021-11-18T13:20:09Z</time>
      </trkpt>
      <trkpt lat="43.88624" lon="5.91544">
        <ele>352.3</ele>
        <time>2021-11-18T13:20:18Z</time>
      </trkpt>
      <trkpt lat="43.88632" lon="5.91538">
        <ele>351.2</ele>
        <time>2021-11-18T13:20:27Z</time>
      </trkpt>
      <trkpt lat="43.88641" lon="5.91532">
        <ele>350.2</ele>
        <time>2021-11-18T13:20:35Z</time>
      </trkpt>
      <trkpt lat="43.88649" lon="5.91526">
        <ele>349.2</ele>
        <time>2021-11-18T13:20:43Z</time>
      </trkpt>
      <trkpt lat="43.88656" lon="5.91519">
        <ele>348.7</ele>
        <time>2021-11-18T13:20:51Z</time>
      </trkpt>
      <trkpt lat="43.88664" lon="5.91514">
        <ele>348.4</ele>
        <time>2021-11-18T13:21:00Z</time>
      </trkpt>
      <trkpt lat="43.88672" lon="5.91505">
        <ele>347.4</ele>
        <time>2021-11-18T13:21:09Z</time>
      </trkpt>
      <trkpt lat="43.88679" lon="5.91495">
        <ele>346.3</ele>
        <time>2021-11-18T13:21:18Z</time>
      </trkpt>
      <trkpt lat="43.88685" lon="5.91484">
        <ele>345.6</ele>
        <time>2021-11-18T13:21:27Z</time>
      </trkpt>
      <trkpt lat="43.88689" lon="5.91473">
        <ele>345</ele>
        <time>2021-11-18T13:21:35Z</time>
      </trkpt>
      <trkpt lat="43.88694" lon="5.9146">
        <ele>344.5</ele>
        <time>2021-11-18T13:21:44Z</time>
      </trkpt>
      <trkpt lat="43.88699" lon="5.91447">
        <ele>344.1</ele>
        <time>2021-11-18T13:21:52Z</time>
      </trkpt>
      <trkpt lat="43.88703" lon="5.91435">
        <ele>343.8</ele>
        <time>2021-11-18T13:22:00Z</time>
      </trkpt>
      <trkpt lat="43.88709" lon="5.91422">
        <ele>343.6</ele>
        <time>2021-11-18T13:22:12Z</time>
      </trkpt>
      <trkpt lat="43.88715" lon="5.91413">
        <ele>343.6</ele>
        <time>2021-11-18T13:22:21Z</time>
      </trkpt>
      <trkpt lat="43.88721" lon="5.91406">
        <ele>343.6</ele>
        <time>2021-11-18T13:22:35Z</time>
      </trkpt>
      <trkpt lat="43.8873" lon="5.91399">
        <ele>343.3</ele>
        <time>2021-11-18T13:22:44Z</time>
      </trkpt>
      <trkpt lat="43.88739" lon="5.91397">
        <ele>343.1</ele>
        <time>2021-11-18T13:23:07Z</time>
      </trkpt>
      <trkpt lat="43.88747" lon="5.9139">
        <ele>343</ele>
        <time>2021-11-18T13:23:16Z</time>
      </trkpt>
      <trkpt lat="43.88756" lon="5.91385">
        <ele>343</ele>
        <time>2021-11-18T13:23:25Z</time>
      </trkpt>
      <trkpt lat="43.88766" lon="5.91379">
        <ele>343</ele>
        <time>2021-11-18T13:23:34Z</time>
      </trkpt>
      <trkpt lat="43.88775" lon="5.91376">
        <ele>343</ele>
        <time>2021-11-18T13:23:42Z</time>
      </trkpt>
      <trkpt lat="43.88783" lon="5.91372">
        <ele>342.9</ele>
        <time>2021-11-18T13:23:51Z</time>
      </trkpt>
      <trkpt lat="43.88795" lon="5.91372">
        <ele>342.6</ele>
        <time>2021-11-18T13:24:02Z</time>
      </trkpt>
      <trkpt lat="43.88806" lon="5.91373">
        <ele>342.4</ele>
        <time>2021-11-18T13:24:11Z</time>
      </trkpt>
      <trkpt lat="43.88816" lon="5.91374">
        <ele>342.5</ele>
        <time>2021-11-18T13:24:20Z</time>
      </trkpt>
      <trkpt lat="43.88823" lon="5.91378">
        <ele>342.6</ele>
        <time>2021-11-18T13:24:30Z</time>
      </trkpt>
      <trkpt lat="43.88833" lon="5.91379">
        <ele>342.6</ele>
        <time>2021-11-18T13:24:39Z</time>
      </trkpt>
      <trkpt lat="43.88843" lon="5.91381">
        <ele>342.5</ele>
        <time>2021-11-18T13:24:48Z</time>
      </trkpt>
      <trkpt lat="43.88854" lon="5.91384">
        <ele>342.2</ele>
        <time>2021-11-18T13:24:57Z</time>
      </trkpt>
      <trkpt lat="43.88865" lon="5.91384">
        <ele>342</ele>
        <time>2021-11-18T13:25:08Z</time>
      </trkpt>
      <trkpt lat="43.88874" lon="5.91384">
        <ele>342</ele>
        <time>2021-11-18T13:25:16Z</time>
      </trkpt>
      <trkpt lat="43.88884" lon="5.91383">
        <ele>342</ele>
        <time>2021-11-18T13:25:25Z</time>
      </trkpt>
      <trkpt lat="43.88893" lon="5.91382">
        <ele>342</ele>
        <time>2021-11-18T13:25:33Z</time>
      </trkpt>
      <trkpt lat="43.88901" lon="5.9138">
        <ele>342</ele>
        <time>2021-11-18T13:25:40Z</time>
      </trkpt>
      <trkpt lat="43.8891" lon="5.9138">
        <ele>342</ele>
        <time>2021-11-18T13:25:47Z</time>
      </trkpt>
      <trkpt lat="43.88917" lon="5.9138">
        <ele>342</ele>
        <time>2021-11-18T13:25:54Z</time>
      </trkpt>
      <trkpt lat="43.88925" lon="5.9138">
        <ele>341.9</ele>
        <time>2021-11-18T13:26:02Z</time>
      </trkpt>
      <trkpt lat="43.88935" lon="5.91378">
        <ele>341.7</ele>
        <time>2021-11-18T13:26:11Z</time>
      </trkpt>
      <trkpt lat="43.88946" lon="5.91379">
        <ele>341.6</ele>
        <time>2021-11-18T13:26:20Z</time>
      </trkpt>
      <trkpt lat="43.88956" lon="5.91381">
        <ele>341.4</ele>
        <time>2021-11-18T13:26:29Z</time>
      </trkpt>
      <trkpt lat="43.88966" lon="5.9138">
        <ele>341.2</ele>
        <time>2021-11-18T13:26:39Z</time>
      </trkpt>
      <trkpt lat="43.88977" lon="5.91381">
        <ele>341.1</ele>
        <time>2021-11-18T13:26:47Z</time>
      </trkpt>
      <trkpt lat="43.88987" lon="5.91381">
        <ele>341.4</ele>
        <time>2021-11-18T13:26:55Z</time>
      </trkpt>
      <trkpt lat="43.88997" lon="5.91382">
        <ele>341.6</ele>
        <time>2021-11-18T13:27:03Z</time>
      </trkpt>
      <trkpt lat="43.89006" lon="5.91381">
        <ele>341.6</ele>
        <time>2021-11-18T13:27:11Z</time>
      </trkpt>
      <trkpt lat="43.89015" lon="5.91383">
        <ele>341.4</ele>
        <time>2021-11-18T13:27:19Z</time>
      </trkpt>
      <trkpt lat="43.89025" lon="5.91382">
        <ele>341.1</ele>
        <time>2021-11-18T13:27:27Z</time>
      </trkpt>
      <trkpt lat="43.89034" lon="5.91382">
        <ele>341</ele>
        <time>2021-11-18T13:27:35Z</time>
      </trkpt>
      <trkpt lat="43.89044" lon="5.91382">
        <ele>341</ele>
        <time>2021-11-18T13:27:43Z</time>
      </trkpt>
      <trkpt lat="43.89053" lon="5.91383">
        <ele>341</ele>
        <time>2021-11-18T13:27:50Z</time>
      </trkpt>
      <trkpt lat="43.89063" lon="5.91382">
        <ele>341</ele>
        <time>2021-11-18T13:27:58Z</time>
      </trkpt>
      <trkpt lat="43.89072" lon="5.91383">
        <ele>341</ele>
        <time>2021-11-18T13:28:06Z</time>
      </trkpt>
      <trkpt lat="43.89081" lon="5.91384">
        <ele>341</ele>
        <time>2021-11-18T13:28:14Z</time>
      </trkpt>
      <trkpt lat="43.89091" lon="5.91385">
        <ele>341</ele>
        <time>2021-11-18T13:28:22Z</time>
      </trkpt>
      <trkpt lat="43.891" lon="5.91386">
        <ele>341</ele>
        <time>2021-11-18T13:28:30Z</time>
      </trkpt>
      <trkpt lat="43.8911" lon="5.91386">
        <ele>341</ele>
        <time>2021-11-18T13:28:38Z</time>
      </trkpt>
      <trkpt lat="43.89119" lon="5.91387">
        <ele>341</ele>
        <time>2021-11-18T13:28:46Z</time>
      </trkpt>
      <trkpt lat="43.89129" lon="5.91387">
        <ele>341</ele>
        <time>2021-11-18T13:28:54Z</time>
      </trkpt>
      <trkpt lat="43.89138" lon="5.91387">
        <ele>341</ele>
        <time>2021-11-18T13:29:02Z</time>
      </trkpt>
      <trkpt lat="43.89147" lon="5.91387">
        <ele>341</ele>
        <time>2021-11-18T13:29:10Z</time>
      </trkpt>
      <trkpt lat="43.89157" lon="5.91386">
        <ele>341</ele>
        <time>2021-11-18T13:29:18Z</time>
      </trkpt>
      <trkpt lat="43.89167" lon="5.91384">
        <ele>341</ele>
        <time>2021-11-18T13:29:27Z</time>
      </trkpt>
      <trkpt lat="43.89177" lon="5.91385">
        <ele>341</ele>
        <time>2021-11-18T13:29:36Z</time>
      </trkpt>
      <trkpt lat="43.89187" lon="5.91384">
        <ele>341</ele>
        <time>2021-11-18T13:29:45Z</time>
      </trkpt>
      <trkpt lat="43.89198" lon="5.91384">
        <ele>341</ele>
        <time>2021-11-18T13:29:54Z</time>
      </trkpt>
      <trkpt lat="43.89209" lon="5.91381">
        <ele>341</ele>
        <time>2021-11-18T13:30:15Z</time>
      </trkpt>
      <trkpt lat="43.89219" lon="5.91384">
        <ele>341</ele>
        <time>2021-11-18T13:30:24Z</time>
      </trkpt>
      <trkpt lat="43.89221" lon="5.91397">
        <ele>340.7</ele>
        <time>2021-11-18T13:30:32Z</time>
      </trkpt>
      <trkpt lat="43.89221" lon="5.91413">
        <ele>340.2</ele>
        <time>2021-11-18T13:30:40Z</time>
      </trkpt>
      <trkpt lat="43.89221" lon="5.91426">
        <ele>340</ele>
        <time>2021-11-18T13:30:47Z</time>
      </trkpt>
      <trkpt lat="43.89219" lon="5.9144">
        <ele>340.1</ele>
        <time>2021-11-18T13:30:55Z</time>
      </trkpt>
      <trkpt lat="43.89219" lon="5.91454">
        <ele>340.4</ele>
        <time>2021-11-18T13:31:03Z</time>
      </trkpt>
      <trkpt lat="43.89218" lon="5.91467">
        <ele>340.8</ele>
        <time>2021-11-18T13:31:11Z</time>
      </trkpt>
      <trkpt lat="43.89218" lon="5.91481">
        <ele>341</ele>
        <time>2021-11-18T13:31:19Z</time>
      </trkpt>
      <trkpt lat="43.89219" lon="5.91494">
        <ele>341</ele>
        <time>2021-11-18T13:31:27Z</time>
      </trkpt>
      <trkpt lat="43.89218" lon="5.91508">
        <ele>341.5</ele>
        <time>2021-11-18T13:31:35Z</time>
      </trkpt>
      <trkpt lat="43.89218" lon="5.91522">
        <ele>342.6</ele>
        <time>2021-11-18T13:31:44Z</time>
      </trkpt>
      <trkpt lat="43.89217" lon="5.91532">
        <ele>343.6</ele>
        <time>2021-11-18T13:32:14Z</time>
      </trkpt>
      <trkpt lat="43.89216" lon="5.91545">
        <ele>345.5</ele>
        <time>2021-11-18T13:32:25Z</time>
      </trkpt>
      <trkpt lat="43.89215" lon="5.91557">
        <ele>347.3</ele>
        <time>2021-11-18T13:32:39Z</time>
      </trkpt>
      <trkpt lat="43.89225" lon="5.91556">
        <ele>346.9</ele>
        <time>2021-11-18T13:32:54Z</time>
      </trkpt>
      <trkpt lat="43.89234" lon="5.91551">
        <ele>345.9</ele>
        <time>2021-11-18T13:33:05Z</time>
      </trkpt>
      <trkpt lat="43.89244" lon="5.91553">
        <ele>345.8</ele>
        <time>2021-11-18T13:33:15Z</time>
      </trkpt>
      <trkpt lat="43.89254" lon="5.91554">
        <ele>345.6</ele>
        <time>2021-11-18T13:33:25Z</time>
      </trkpt>
      <trkpt lat="43.89266" lon="5.91555">
        <ele>345.4</ele>
        <time>2021-11-18T13:33:36Z</time>
      </trkpt>
      <trkpt lat="43.89274" lon="5.91555">
        <ele>345</ele>
        <time>2021-11-18T13:33:46Z</time>
      </trkpt>
      <trkpt lat="43.89285" lon="5.91557">
        <ele>345.4</ele>
        <time>2021-11-18T13:33:55Z</time>
      </trkpt>
      <trkpt lat="43.89287" lon="5.91552">
        <ele>344.7</ele>
        <time>2021-11-18T13:34:18Z</time>
      </trkpt>
      <trkpt lat="43.89297" lon="5.91554">
        <ele>344.8</ele>
        <time>2021-11-18T13:34:50Z</time>
      </trkpt>
      <trkpt lat="43.89311" lon="5.9156">
        <ele>345.9</ele>
        <time>2021-11-18T13:34:58Z</time>
      </trkpt>
      <trkpt lat="43.89322" lon="5.91562">
        <ele>346.4</ele>
        <time>2021-11-18T13:35:07Z</time>
      </trkpt>
      <trkpt lat="43.89334" lon="5.91563">
        <ele>346.6</ele>
        <time>2021-11-18T13:35:16Z</time>
      </trkpt>
      <trkpt lat="43.89345" lon="5.91564">
        <ele>347.1</ele>
        <time>2021-11-18T13:35:25Z</time>
      </trkpt>
      <trkpt lat="43.89355" lon="5.91565">
        <ele>347.7</ele>
        <time>2021-11-18T13:35:34Z</time>
      </trkpt>
      <trkpt lat="43.89366" lon="5.91567">
        <ele>348.1</ele>
        <time>2021-11-18T13:35:42Z</time>
      </trkpt>
      <trkpt lat="43.89375" lon="5.91567">
        <ele>348.1</ele>
        <time>2021-11-18T13:35:50Z</time>
      </trkpt>
      <trkpt lat="43.89387" lon="5.91568">
        <ele>348.2</ele>
        <time>2021-11-18T13:35:59Z</time>
      </trkpt>
      <trkpt lat="43.89397" lon="5.91571">
        <ele>348.7</ele>
        <time>2021-11-18T13:36:08Z</time>
      </trkpt>
      <trkpt lat="43.89407" lon="5.91573">
        <ele>349.1</ele>
        <time>2021-11-18T13:36:17Z</time>
      </trkpt>
      <trkpt lat="43.89417" lon="5.91575">
        <ele>349.5</ele>
        <time>2021-11-18T13:36:26Z</time>
      </trkpt>
      <trkpt lat="43.89429" lon="5.91578">
        <ele>349.6</ele>
        <time>2021-11-18T13:36:35Z</time>
      </trkpt>
      <trkpt lat="43.8944" lon="5.91581">
        <ele>349.9</ele>
        <time>2021-11-18T13:36:44Z</time>
      </trkpt>
      <trkpt lat="43.89449" lon="5.91583">
        <ele>349.8</ele>
        <time>2021-11-18T13:36:52Z</time>
      </trkpt>
      <trkpt lat="43.89462" lon="5.91583">
        <ele>349.3</ele>
        <time>2021-11-18T13:37:02Z</time>
      </trkpt>
      <trkpt lat="43.89475" lon="5.91583">
        <ele>349</ele>
        <time>2021-11-18T13:37:11Z</time>
      </trkpt>
      <trkpt lat="43.89485" lon="5.9158">
        <ele>348.5</ele>
        <time>2021-11-18T13:37:19Z</time>
      </trkpt>
      <trkpt lat="43.89494" lon="5.91577">
        <ele>348.1</ele>
        <time>2021-11-18T13:37:33Z</time>
      </trkpt>
      <trkpt lat="43.89495" lon="5.91575">
        <ele>347.7</ele>
        <time>2021-11-18T13:38:30Z</time>
      </trkpt>
      <trkpt lat="43.89506" lon="5.91574">
        <ele>347.8</ele>
        <time>2021-11-18T13:38:42Z</time>
      </trkpt>
      <trkpt lat="43.89517" lon="5.91574">
        <ele>348.3</ele>
        <time>2021-11-18T13:38:52Z</time>
      </trkpt>
      <trkpt lat="43.89527" lon="5.91573">
        <ele>348.5</ele>
        <time>2021-11-18T13:39:02Z</time>
      </trkpt>
      <trkpt lat="43.89539" lon="5.91571">
        <ele>348.7</ele>
        <time>2021-11-18T13:39:12Z</time>
      </trkpt>
      <trkpt lat="43.89549" lon="5.91569">
        <ele>348.7</ele>
        <time>2021-11-18T13:39:21Z</time>
      </trkpt>
      <trkpt lat="43.8956" lon="5.91567">
        <ele>348.8</ele>
        <time>2021-11-18T13:39:31Z</time>
      </trkpt>
      <trkpt lat="43.8957" lon="5.91565">
        <ele>349</ele>
        <time>2021-11-18T13:39:40Z</time>
      </trkpt>
      <trkpt lat="43.8958" lon="5.91561">
        <ele>348.8</ele>
        <time>2021-11-18T13:39:49Z</time>
      </trkpt>
      <trkpt lat="43.8959" lon="5.9156">
        <ele>349</ele>
        <time>2021-11-18T13:39:58Z</time>
      </trkpt>
      <trkpt lat="43.89599" lon="5.91559">
        <ele>349.1</ele>
        <time>2021-11-18T13:40:07Z</time>
      </trkpt>
      <trkpt lat="43.8961" lon="5.9156">
        <ele>349.6</ele>
        <time>2021-11-18T13:40:15Z</time>
      </trkpt>
      <trkpt lat="43.89619" lon="5.9156">
        <ele>349.9</ele>
        <time>2021-11-18T13:40:24Z</time>
      </trkpt>
      <trkpt lat="43.89629" lon="5.91561">
        <ele>350.5</ele>
        <time>2021-11-18T13:40:32Z</time>
      </trkpt>
      <trkpt lat="43.89639" lon="5.9156">
        <ele>350.6</ele>
        <time>2021-11-18T13:40:41Z</time>
      </trkpt>
      <trkpt lat="43.89649" lon="5.91556">
        <ele>350.1</ele>
        <time>2021-11-18T13:40:51Z</time>
      </trkpt>
      <trkpt lat="43.89659" lon="5.91556">
        <ele>350.1</ele>
        <time>2021-11-18T13:41:01Z</time>
      </trkpt>
      <trkpt lat="43.8967" lon="5.91558">
        <ele>350.1</ele>
        <time>2021-11-18T13:41:11Z</time>
      </trkpt>
      <trkpt lat="43.89681" lon="5.91561">
        <ele>350.1</ele>
        <time>2021-11-18T13:41:22Z</time>
      </trkpt>
      <trkpt lat="43.89692" lon="5.91561">
        <ele>349.9</ele>
        <time>2021-11-18T13:41:32Z</time>
      </trkpt>
      <trkpt lat="43.89702" lon="5.91563">
        <ele>349.9</ele>
        <time>2021-11-18T13:41:40Z</time>
      </trkpt>
      <trkpt lat="43.89714" lon="5.91563">
        <ele>349.9</ele>
        <time>2021-11-18T13:41:49Z</time>
      </trkpt>
      <trkpt lat="43.89723" lon="5.91565">
        <ele>350</ele>
        <time>2021-11-18T13:41:57Z</time>
      </trkpt>
      <trkpt lat="43.89734" lon="5.91566">
        <ele>349.7</ele>
        <time>2021-11-18T13:42:07Z</time>
      </trkpt>
      <trkpt lat="43.89742" lon="5.91564">
        <ele>349.2</ele>
        <time>2021-11-18T13:42:17Z</time>
      </trkpt>
      <trkpt lat="43.89751" lon="5.91566">
        <ele>349.1</ele>
        <time>2021-11-18T13:42:27Z</time>
      </trkpt>
      <trkpt lat="43.89765" lon="5.91566">
        <ele>348.8</ele>
        <time>2021-11-18T13:42:42Z</time>
      </trkpt>
      <trkpt lat="43.89777" lon="5.91569">
        <ele>348.9</ele>
        <time>2021-11-18T13:42:52Z</time>
      </trkpt>
      <trkpt lat="43.89785" lon="5.91569">
        <ele>349.1</ele>
        <time>2021-11-18T13:43:01Z</time>
      </trkpt>
      <trkpt lat="43.89795" lon="5.9157">
        <ele>349.3</ele>
        <time>2021-11-18T13:43:10Z</time>
      </trkpt>
      <trkpt lat="43.89806" lon="5.91569">
        <ele>349.4</ele>
        <time>2021-11-18T13:43:20Z</time>
      </trkpt>
      <trkpt lat="43.89813" lon="5.91571">
        <ele>349.7</ele>
        <time>2021-11-18T13:43:33Z</time>
      </trkpt>
      <trkpt lat="43.89822" lon="5.91568">
        <ele>349.4</ele>
        <time>2021-11-18T13:43:47Z</time>
      </trkpt>
      <trkpt lat="43.89834" lon="5.91567">
        <ele>349.3</ele>
        <time>2021-11-18T13:43:56Z</time>
      </trkpt>
      <trkpt lat="43.89844" lon="5.91567">
        <ele>348.8</ele>
        <time>2021-11-18T13:44:04Z</time>
      </trkpt>
      <trkpt lat="43.89854" lon="5.91568">
        <ele>348.6</ele>
        <time>2021-11-18T13:44:12Z</time>
      </trkpt>
      <trkpt lat="43.89863" lon="5.91567">
        <ele>348.2</ele>
        <time>2021-11-18T13:44:20Z</time>
      </trkpt>
      <trkpt lat="43.89872" lon="5.91567">
        <ele>348.3</ele>
        <time>2021-11-18T13:44:28Z</time>
      </trkpt>
      <trkpt lat="43.89882" lon="5.91568">
        <ele>348.3</ele>
        <time>2021-11-18T13:44:36Z</time>
      </trkpt>
      <trkpt lat="43.89891" lon="5.91567">
        <ele>348.3</ele>
        <time>2021-11-18T13:44:44Z</time>
      </trkpt>
      <trkpt lat="43.899" lon="5.91567">
        <ele>348.4</ele>
        <time>2021-11-18T13:44:52Z</time>
      </trkpt>
      <trkpt lat="43.89911" lon="5.91567">
        <ele>348.6</ele>
        <time>2021-11-18T13:45:01Z</time>
      </trkpt>
      <trkpt lat="43.89921" lon="5.91566">
        <ele>348.8</ele>
        <time>2021-11-18T13:45:10Z</time>
      </trkpt>
      <trkpt lat="43.89935" lon="5.91565">
        <ele>349.5</ele>
        <time>2021-11-18T13:45:21Z</time>
      </trkpt>
      <trkpt lat="43.89946" lon="5.9156">
        <ele>349.4</ele>
        <time>2021-11-18T13:45:31Z</time>
      </trkpt>
      <trkpt lat="43.89957" lon="5.91559">
        <ele>349.5</ele>
        <time>2021-11-18T13:45:39Z</time>
      </trkpt>
      <trkpt lat="43.89968" lon="5.91559">
        <ele>349.5</ele>
        <time>2021-11-18T13:45:48Z</time>
      </trkpt>
      <trkpt lat="43.89979" lon="5.91559">
        <ele>349.9</ele>
        <time>2021-11-18T13:45:56Z</time>
      </trkpt>
      <trkpt lat="43.89989" lon="5.91559">
        <ele>350.1</ele>
        <time>2021-11-18T13:46:04Z</time>
      </trkpt>
      <trkpt lat="43.89998" lon="5.91556">
        <ele>350</ele>
        <time>2021-11-18T13:46:12Z</time>
      </trkpt>
      <trkpt lat="43.90008" lon="5.91554">
        <ele>350.5</ele>
        <time>2021-11-18T13:46:21Z</time>
      </trkpt>
      <trkpt lat="43.90021" lon="5.91551">
        <ele>351</ele>
        <time>2021-11-18T13:46:30Z</time>
      </trkpt>
      <trkpt lat="43.9003" lon="5.9155">
        <ele>351.5</ele>
        <time>2021-11-18T13:46:37Z</time>
      </trkpt>
      <trkpt lat="43.90039" lon="5.9155">
        <ele>351.8</ele>
        <time>2021-11-18T13:46:45Z</time>
      </trkpt>
      <trkpt lat="43.90047" lon="5.91549">
        <ele>352.2</ele>
        <time>2021-11-18T13:46:54Z</time>
      </trkpt>
      <trkpt lat="43.90058" lon="5.91548">
        <ele>352.6</ele>
        <time>2021-11-18T13:47:03Z</time>
      </trkpt>
      <trkpt lat="43.90069" lon="5.91549">
        <ele>353.6</ele>
        <time>2021-11-18T13:47:13Z</time>
      </trkpt>
      <trkpt lat="43.90081" lon="5.91549">
        <ele>354.6</ele>
        <time>2021-11-18T13:47:27Z</time>
      </trkpt>
      <trkpt lat="43.90091" lon="5.91547">
        <ele>354.5</ele>
        <time>2021-11-18T13:47:37Z</time>
      </trkpt>
      <trkpt lat="43.901" lon="5.91547">
        <ele>354.5</ele>
        <time>2021-11-18T13:47:45Z</time>
      </trkpt>
      <trkpt lat="43.90111" lon="5.91546">
        <ele>354.2</ele>
        <time>2021-11-18T13:47:54Z</time>
      </trkpt>
      <trkpt lat="43.90121" lon="5.9154">
        <ele>353.5</ele>
        <time>2021-11-18T13:48:03Z</time>
      </trkpt>
      <trkpt lat="43.90129" lon="5.91535">
        <ele>353</ele>
        <time>2021-11-18T13:48:11Z</time>
      </trkpt>
      <trkpt lat="43.90138" lon="5.91532">
        <ele>352.6</ele>
        <time>2021-11-18T13:48:20Z</time>
      </trkpt>
      <trkpt lat="43.90147" lon="5.91528">
        <ele>353.1</ele>
        <time>2021-11-18T13:48:28Z</time>
      </trkpt>
      <trkpt lat="43.90156" lon="5.91524">
        <ele>354.1</ele>
        <time>2021-11-18T13:48:37Z</time>
      </trkpt>
      <trkpt lat="43.90164" lon="5.91516">
        <ele>354.4</ele>
        <time>2021-11-18T13:48:45Z</time>
      </trkpt>
      <trkpt lat="43.90172" lon="5.9151">
        <ele>354.7</ele>
        <time>2021-11-18T13:48:54Z</time>
      </trkpt>
      <trkpt lat="43.90179" lon="5.91505">
        <ele>355</ele>
        <time>2021-11-18T13:49:03Z</time>
      </trkpt>
      <trkpt lat="43.90188" lon="5.91498">
        <ele>355.2</ele>
        <time>2021-11-18T13:49:13Z</time>
      </trkpt>
      <trkpt lat="43.90199" lon="5.91497">
        <ele>356</ele>
        <time>2021-11-18T13:49:23Z</time>
      </trkpt>
      <trkpt lat="43.90209" lon="5.91494">
        <ele>356.5</ele>
        <time>2021-11-18T13:49:32Z</time>
      </trkpt>
      <trkpt lat="43.90217" lon="5.91489">
        <ele>356.5</ele>
        <time>2021-11-18T13:49:42Z</time>
      </trkpt>
      <trkpt lat="43.90227" lon="5.91488">
        <ele>356.7</ele>
        <time>2021-11-18T13:50:07Z</time>
      </trkpt>
      <trkpt lat="43.90237" lon="5.91488">
        <ele>356.7</ele>
        <time>2021-11-18T13:50:23Z</time>
      </trkpt>
      <trkpt lat="43.90246" lon="5.91486">
        <ele>356.5</ele>
        <time>2021-11-18T13:50:38Z</time>
      </trkpt>
      <trkpt lat="43.90256" lon="5.91487">
        <ele>356.1</ele>
        <time>2021-11-18T13:50:48Z</time>
      </trkpt>
      <trkpt lat="43.90264" lon="5.91488">
        <ele>355.6</ele>
        <time>2021-11-18T13:50:57Z</time>
      </trkpt>
      <trkpt lat="43.90273" lon="5.91489">
        <ele>355</ele>
        <time>2021-11-18T13:51:06Z</time>
      </trkpt>
      <trkpt lat="43.90282" lon="5.9149">
        <ele>354.2</ele>
        <time>2021-11-18T13:51:15Z</time>
      </trkpt>
      <trkpt lat="43.90292" lon="5.91492">
        <ele>353.2</ele>
        <time>2021-11-18T13:51:27Z</time>
      </trkpt>
      <trkpt lat="43.90301" lon="5.91499">
        <ele>352.4</ele>
        <time>2021-11-18T13:51:39Z</time>
      </trkpt>
      <trkpt lat="43.90311" lon="5.91499">
        <ele>351.4</ele>
        <time>2021-11-18T13:51:48Z</time>
      </trkpt>
      <trkpt lat="43.9032" lon="5.91497">
        <ele>350.3</ele>
        <time>2021-11-18T13:51:56Z</time>
      </trkpt>
      <trkpt lat="43.90329" lon="5.91496">
        <ele>349.3</ele>
        <time>2021-11-18T13:52:05Z</time>
      </trkpt>
      <trkpt lat="43.90339" lon="5.91493">
        <ele>348.9</ele>
        <time>2021-11-18T13:52:13Z</time>
      </trkpt>
      <trkpt lat="43.90348" lon="5.91491">
        <ele>348.9</ele>
        <time>2021-11-18T13:52:21Z</time>
      </trkpt>
      <trkpt lat="43.90358" lon="5.91491">
        <ele>349</ele>
        <time>2021-11-18T13:52:30Z</time>
      </trkpt>
      <trkpt lat="43.90367" lon="5.91489">
        <ele>348.9</ele>
        <time>2021-11-18T13:52:41Z</time>
      </trkpt>
      <trkpt lat="43.90378" lon="5.91487">
        <ele>348.9</ele>
        <time>2021-11-18T13:52:50Z</time>
      </trkpt>
      <trkpt lat="43.90388" lon="5.91484">
        <ele>348.7</ele>
        <time>2021-11-18T13:52:59Z</time>
      </trkpt>
      <trkpt lat="43.90399" lon="5.91482">
        <ele>348.5</ele>
        <time>2021-11-18T13:53:08Z</time>
      </trkpt>
      <trkpt lat="43.90408" lon="5.91479">
        <ele>348.2</ele>
        <time>2021-11-18T13:53:17Z</time>
      </trkpt>
      <trkpt lat="43.90417" lon="5.91475">
        <ele>347.5</ele>
        <time>2021-11-18T13:53:25Z</time>
      </trkpt>
      <trkpt lat="43.90427" lon="5.91473">
        <ele>347.5</ele>
        <time>2021-11-18T13:53:33Z</time>
      </trkpt>
      <trkpt lat="43.90438" lon="5.9147">
        <ele>347.6</ele>
        <time>2021-11-18T13:53:42Z</time>
      </trkpt>
      <trkpt lat="43.90448" lon="5.9147">
        <ele>348</ele>
        <time>2021-11-18T13:53:50Z</time>
      </trkpt>
      <trkpt lat="43.90453" lon="5.91472">
        <ele>348.3</ele>
        <time>2021-11-18T13:54:21Z</time>
      </trkpt>
      <trkpt lat="43.90449" lon="5.9147">
        <ele>348</ele>
        <time>2021-11-18T13:54:51Z</time>
      </trkpt>
      <trkpt lat="43.90451" lon="5.91467">
        <ele>347.8</ele>
        <time>2021-11-18T13:55:45Z</time>
      </trkpt>
      <trkpt lat="43.90451" lon="5.91472">
        <ele>348.2</ele>
        <time>2021-11-18T13:56:45Z</time>
      </trkpt>
      <trkpt lat="43.90462" lon="5.91465">
        <ele>348.1</ele>
        <time>2021-11-18T13:57:00Z</time>
      </trkpt>
      <trkpt lat="43.90475" lon="5.91464">
        <ele>348.6</ele>
        <time>2021-11-18T13:57:09Z</time>
      </trkpt>
      <trkpt lat="43.90483" lon="5.9146">
        <ele>348.8</ele>
        <time>2021-11-18T13:57:18Z</time>
      </trkpt>
      <trkpt lat="43.90493" lon="5.91459">
        <ele>349.2</ele>
        <time>2021-11-18T13:57:28Z</time>
      </trkpt>
      <trkpt lat="43.90503" lon="5.91454">
        <ele>349.3</ele>
        <time>2021-11-18T13:57:37Z</time>
      </trkpt>
      <trkpt lat="43.90512" lon="5.91449">
        <ele>349.4</ele>
        <time>2021-11-18T13:57:46Z</time>
      </trkpt>
      <trkpt lat="43.9052" lon="5.91443">
        <ele>349.4</ele>
        <time>2021-11-18T13:57:56Z</time>
      </trkpt>
      <trkpt lat="43.90532" lon="5.91441">
        <ele>350.1</ele>
        <time>2021-11-18T13:58:06Z</time>
      </trkpt>
      <trkpt lat="43.90545" lon="5.91439">
        <ele>350.9</ele>
        <time>2021-11-18T13:58:18Z</time>
      </trkpt>
      <trkpt lat="43.90555" lon="5.91437">
        <ele>351.1</ele>
        <time>2021-11-18T13:58:28Z</time>
      </trkpt>
      <trkpt lat="43.90566" lon="5.91434">
        <ele>351.7</ele>
        <time>2021-11-18T13:58:38Z</time>
      </trkpt>
      <trkpt lat="43.90576" lon="5.91425">
        <ele>351.4</ele>
        <time>2021-11-18T13:58:47Z</time>
      </trkpt>
      <trkpt lat="43.90586" lon="5.91421">
        <ele>351.6</ele>
        <time>2021-11-18T13:58:55Z</time>
      </trkpt>
      <trkpt lat="43.90595" lon="5.91418">
        <ele>351.6</ele>
        <time>2021-11-18T13:59:04Z</time>
      </trkpt>
      <trkpt lat="43.90611" lon="5.91415">
        <ele>351.9</ele>
        <time>2021-11-18T13:59:15Z</time>
      </trkpt>
      <trkpt lat="43.90621" lon="5.91414">
        <ele>352.2</ele>
        <time>2021-11-18T13:59:23Z</time>
      </trkpt>
      <trkpt lat="43.9063" lon="5.9141">
        <ele>352</ele>
        <time>2021-11-18T13:59:31Z</time>
      </trkpt>
      <trkpt lat="43.9064" lon="5.91407">
        <ele>351.9</ele>
        <time>2021-11-18T13:59:40Z</time>
      </trkpt>
      <trkpt lat="43.90649" lon="5.91405">
        <ele>352.1</ele>
        <time>2021-11-18T13:59:48Z</time>
      </trkpt>
      <trkpt lat="43.90655" lon="5.91398">
        <ele>351.6</ele>
        <time>2021-11-18T13:59:57Z</time>
      </trkpt>
      <trkpt lat="43.90665" lon="5.91396">
        <ele>351.7</ele>
        <time>2021-11-18T14:00:06Z</time>
      </trkpt>
      <trkpt lat="43.90674" lon="5.91395">
        <ele>351.6</ele>
        <time>2021-11-18T14:00:15Z</time>
      </trkpt>
      <trkpt lat="43.90683" lon="5.91395">
        <ele>351.5</ele>
        <time>2021-11-18T14:00:26Z</time>
      </trkpt>
      <trkpt lat="43.90695" lon="5.91392">
        <ele>351.2</ele>
        <time>2021-11-18T14:00:35Z</time>
      </trkpt>
      <trkpt lat="43.90705" lon="5.91391">
        <ele>351.1</ele>
        <time>2021-11-18T14:00:43Z</time>
      </trkpt>
      <trkpt lat="43.90717" lon="5.91391">
        <ele>351.1</ele>
        <time>2021-11-18T14:00:53Z</time>
      </trkpt>
      <trkpt lat="43.90727" lon="5.91389">
        <ele>351</ele>
        <time>2021-11-18T14:01:02Z</time>
      </trkpt>
      <trkpt lat="43.90735" lon="5.91387">
        <ele>350.9</ele>
        <time>2021-11-18T14:01:10Z</time>
      </trkpt>
      <trkpt lat="43.90746" lon="5.91385">
        <ele>350.9</ele>
        <time>2021-11-18T14:01:19Z</time>
      </trkpt>
      <trkpt lat="43.90756" lon="5.91386">
        <ele>351.1</ele>
        <time>2021-11-18T14:01:28Z</time>
      </trkpt>
      <trkpt lat="43.90766" lon="5.91385">
        <ele>351.4</ele>
        <time>2021-11-18T14:01:36Z</time>
      </trkpt>
      <trkpt lat="43.90776" lon="5.91384">
        <ele>351.8</ele>
        <time>2021-11-18T14:01:45Z</time>
      </trkpt>
      <trkpt lat="43.90787" lon="5.91384">
        <ele>351.8</ele>
        <time>2021-11-18T14:01:55Z</time>
      </trkpt>
      <trkpt lat="43.90798" lon="5.91386">
        <ele>351.9</ele>
        <time>2021-11-18T14:02:05Z</time>
      </trkpt>
      <trkpt lat="43.9081" lon="5.91386">
        <ele>352.1</ele>
        <time>2021-11-18T14:02:15Z</time>
      </trkpt>
      <trkpt lat="43.9082" lon="5.91386">
        <ele>352.5</ele>
        <time>2021-11-18T14:02:25Z</time>
      </trkpt>
      <trkpt lat="43.90831" lon="5.91389">
        <ele>352.9</ele>
        <time>2021-11-18T14:02:36Z</time>
      </trkpt>
      <trkpt lat="43.90843" lon="5.91389">
        <ele>353</ele>
        <time>2021-11-18T14:02:46Z</time>
      </trkpt>
      <trkpt lat="43.90855" lon="5.91388">
        <ele>353</ele>
        <time>2021-11-18T14:02:55Z</time>
      </trkpt>
      <trkpt lat="43.90865" lon="5.91391">
        <ele>353.2</ele>
        <time>2021-11-18T14:03:03Z</time>
      </trkpt>
      <trkpt lat="43.90876" lon="5.91394">
        <ele>353.5</ele>
        <time>2021-11-18T14:03:13Z</time>
      </trkpt>
      <trkpt lat="43.90886" lon="5.91396">
        <ele>353.9</ele>
        <time>2021-11-18T14:03:23Z</time>
      </trkpt>
      <trkpt lat="43.90897" lon="5.91399">
        <ele>354</ele>
        <time>2021-11-18T14:03:37Z</time>
      </trkpt>
      <trkpt lat="43.90907" lon="5.91398">
        <ele>354</ele>
        <time>2021-11-18T14:03:47Z</time>
      </trkpt>
      <trkpt lat="43.90919" lon="5.91399">
        <ele>354.1</ele>
        <time>2021-11-18T14:03:57Z</time>
      </trkpt>
      <trkpt lat="43.90931" lon="5.91401">
        <ele>354.5</ele>
        <time>2021-11-18T14:04:05Z</time>
      </trkpt>
      <trkpt lat="43.9094" lon="5.91403">
        <ele>354.9</ele>
        <time>2021-11-18T14:04:13Z</time>
      </trkpt>
      <trkpt lat="43.90951" lon="5.91404">
        <ele>355</ele>
        <time>2021-11-18T14:04:23Z</time>
      </trkpt>
      <trkpt lat="43.9096" lon="5.91399">
        <ele>355</ele>
        <time>2021-11-18T14:04:33Z</time>
      </trkpt>
      <trkpt lat="43.90971" lon="5.914">
        <ele>355</ele>
        <time>2021-11-18T14:04:45Z</time>
      </trkpt>
      <trkpt lat="43.90986" lon="5.91405">
        <ele>355</ele>
        <time>2021-11-18T14:04:55Z</time>
      </trkpt>
      <trkpt lat="43.90998" lon="5.91408">
        <ele>355</ele>
        <time>2021-11-18T14:05:05Z</time>
      </trkpt>
      <trkpt lat="43.91008" lon="5.91414">
        <ele>355.3</ele>
        <time>2021-11-18T14:05:15Z</time>
      </trkpt>
      <trkpt lat="43.91018" lon="5.91423">
        <ele>355.9</ele>
        <time>2021-11-18T14:05:24Z</time>
      </trkpt>
      <trkpt lat="43.91027" lon="5.91431">
        <ele>356.5</ele>
        <time>2021-11-18T14:05:33Z</time>
      </trkpt>
      <trkpt lat="43.91037" lon="5.91439">
        <ele>356.9</ele>
        <time>2021-11-18T14:05:41Z</time>
      </trkpt>
      <trkpt lat="43.91045" lon="5.91446">
        <ele>357</ele>
        <time>2021-11-18T14:05:51Z</time>
      </trkpt>
      <trkpt lat="43.91054" lon="5.91453">
        <ele>357.3</ele>
        <time>2021-11-18T14:06:00Z</time>
      </trkpt>
      <trkpt lat="43.91064" lon="5.91461">
        <ele>357.7</ele>
        <time>2021-11-18T14:06:09Z</time>
      </trkpt>
      <trkpt lat="43.91073" lon="5.91469">
        <ele>358</ele>
        <time>2021-11-18T14:06:18Z</time>
      </trkpt>
      <trkpt lat="43.91081" lon="5.91477">
        <ele>358</ele>
        <time>2021-11-18T14:06:27Z</time>
      </trkpt>
      <trkpt lat="43.9109" lon="5.91486">
        <ele>358.1</ele>
        <time>2021-11-18T14:06:37Z</time>
      </trkpt>
      <trkpt lat="43.91099" lon="5.91497">
        <ele>358.5</ele>
        <time>2021-11-18T14:06:47Z</time>
      </trkpt>
      <trkpt lat="43.91106" lon="5.91507">
        <ele>359.1</ele>
        <time>2021-11-18T14:06:55Z</time>
      </trkpt>
      <trkpt lat="43.91111" lon="5.91518">
        <ele>359.7</ele>
        <time>2021-11-18T14:07:03Z</time>
      </trkpt>
      <trkpt lat="43.91116" lon="5.9153">
        <ele>360</ele>
        <time>2021-11-18T14:07:11Z</time>
      </trkpt>
      <trkpt lat="43.91123" lon="5.91539">
        <ele>360.2</ele>
        <time>2021-11-18T14:07:20Z</time>
      </trkpt>
      <trkpt lat="43.91134" lon="5.91538">
        <ele>360.3</ele>
        <time>2021-11-18T14:07:30Z</time>
      </trkpt>
      <trkpt lat="43.91143" lon="5.91532">
        <ele>360.3</ele>
        <time>2021-11-18T14:07:39Z</time>
      </trkpt>
      <trkpt lat="43.91151" lon="5.91529">
        <ele>360.5</ele>
        <time>2021-11-18T14:07:48Z</time>
      </trkpt>
      <trkpt lat="43.9116" lon="5.91526">
        <ele>360.7</ele>
        <time>2021-11-18T14:07:58Z</time>
      </trkpt>
      <trkpt lat="43.91172" lon="5.91526">
        <ele>360</ele>
        <time>2021-11-18T14:08:08Z</time>
      </trkpt>
      <trkpt lat="43.91182" lon="5.91529">
        <ele>358.4</ele>
        <time>2021-11-18T14:08:17Z</time>
      </trkpt>
      <trkpt lat="43.91192" lon="5.91532">
        <ele>356.8</ele>
        <time>2021-11-18T14:08:26Z</time>
      </trkpt>
      <trkpt lat="43.91202" lon="5.91538">
        <ele>357.5</ele>
        <time>2021-11-18T14:08:35Z</time>
      </trkpt>
      <trkpt lat="43.91211" lon="5.9155">
        <ele>359.4</ele>
        <time>2021-11-18T14:08:51Z</time>
      </trkpt>
      <trkpt lat="43.91209" lon="5.91567">
        <ele>359.6</ele>
        <time>2021-11-18T14:09:07Z</time>
      </trkpt>
      <trkpt lat="43.91204" lon="5.91568">
        <ele>359.1</ele>
        <time>2021-11-18T14:09:31Z</time>
      </trkpt>
      <trkpt lat="43.91205" lon="5.91568">
        <ele>359.2</ele>
        <time>2021-11-18T14:10:33Z</time>
      </trkpt>
      <trkpt lat="43.91208" lon="5.91573">
        <ele>359.5</ele>
        <time>2021-11-18T14:11:03Z</time>
      </trkpt>
      <trkpt lat="43.91208" lon="5.91573">
        <ele>359.5</ele>
        <time>2021-11-18T14:11:33Z</time>
      </trkpt>
    </trkseg>
  </trk>
</gpx>